<?xml version="1.0" encoding="UTF-8" standalone="no" ?>
<gpx xmlns="http://www.topografix.com/GPX/1/1" xmlns:xsi="http://www.w3.org/2001/XMLSchema-instance" xsi:schemaLocation="http://www.topografix.com/GPX/1/1 http://www.topografix.com/GPX/1/1/gpx.xsd" version="1.1" creator="VisuGPX - https://www.visugpx.com">
  <metadata>
    <name>Gabaston Sedzère</name>
    <desc><![CDATA[De nombreux petits chemins dans Gabaston et des jolis bois de chênes dans Sedzère.]]></desc>
  </metadata>
  <trk>
    <name><![CDATA[Tracé actuel: 23 FEV 2012 15:01]]></name>
    <trkseg>
      <trkpt lat="43.34204" lon="-0.21986">
        <ele>320.26</ele>
        <time>2012-02-23T14:01:12Z</time>
      </trkpt>
      <trkpt lat="43.34204" lon="-0.21968">
        <ele>321.22</ele>
        <time>2012-02-23T14:01:49Z</time>
      </trkpt>
      <trkpt lat="43.34205" lon="-0.21949">
        <ele>321.22</ele>
        <time>2012-02-23T14:01:58Z</time>
      </trkpt>
      <trkpt lat="43.34207" lon="-0.21934">
        <ele>321.22</ele>
        <time>2012-02-23T14:02:07Z</time>
      </trkpt>
      <trkpt lat="43.3421" lon="-0.21919">
        <ele>321.7</ele>
        <time>2012-02-23T14:02:15Z</time>
      </trkpt>
      <trkpt lat="43.3421" lon="-0.21904">
        <ele>321.22</ele>
        <time>2012-02-23T14:02:23Z</time>
      </trkpt>
      <trkpt lat="43.34209" lon="-0.2189">
        <ele>321.7</ele>
        <time>2012-02-23T14:02:31Z</time>
      </trkpt>
      <trkpt lat="43.3421" lon="-0.21877">
        <ele>321.7</ele>
        <time>2012-02-23T14:02:40Z</time>
      </trkpt>
      <trkpt lat="43.34211" lon="-0.21863">
        <ele>321.7</ele>
        <time>2012-02-23T14:02:49Z</time>
      </trkpt>
      <trkpt lat="43.34211" lon="-0.2185">
        <ele>321.7</ele>
        <time>2012-02-23T14:02:57Z</time>
      </trkpt>
      <trkpt lat="43.3421" lon="-0.21837">
        <ele>321.7</ele>
        <time>2012-02-23T14:03:05Z</time>
      </trkpt>
      <trkpt lat="43.34211" lon="-0.21823">
        <ele>322.18</ele>
        <time>2012-02-23T14:03:13Z</time>
      </trkpt>
      <trkpt lat="43.34213" lon="-0.21809">
        <ele>322.18</ele>
        <time>2012-02-23T14:03:22Z</time>
      </trkpt>
      <trkpt lat="43.34215" lon="-0.21795">
        <ele>321.7</ele>
        <time>2012-02-23T14:03:31Z</time>
      </trkpt>
      <trkpt lat="43.34216" lon="-0.2178">
        <ele>321.7</ele>
        <time>2012-02-23T14:03:40Z</time>
      </trkpt>
      <trkpt lat="43.34217" lon="-0.21767">
        <ele>321.7</ele>
        <time>2012-02-23T14:03:49Z</time>
      </trkpt>
      <trkpt lat="43.34217" lon="-0.21752">
        <ele>321.7</ele>
        <time>2012-02-23T14:03:59Z</time>
      </trkpt>
      <trkpt lat="43.34216" lon="-0.21737">
        <ele>321.22</ele>
        <time>2012-02-23T14:04:09Z</time>
      </trkpt>
      <trkpt lat="43.34217" lon="-0.21725">
        <ele>321.7</ele>
        <time>2012-02-23T14:04:21Z</time>
      </trkpt>
      <trkpt lat="43.3422" lon="-0.21712">
        <ele>321.7</ele>
        <time>2012-02-23T14:04:31Z</time>
      </trkpt>
      <trkpt lat="43.34222" lon="-0.21699">
        <ele>321.7</ele>
        <time>2012-02-23T14:04:40Z</time>
      </trkpt>
      <trkpt lat="43.34225" lon="-0.21686">
        <ele>321.22</ele>
        <time>2012-02-23T14:04:49Z</time>
      </trkpt>
      <trkpt lat="43.34226" lon="-0.21671">
        <ele>321.22</ele>
        <time>2012-02-23T14:04:58Z</time>
      </trkpt>
      <trkpt lat="43.34229" lon="-0.21657">
        <ele>321.7</ele>
        <time>2012-02-23T14:05:07Z</time>
      </trkpt>
      <trkpt lat="43.34232" lon="-0.21644">
        <ele>321.7</ele>
        <time>2012-02-23T14:05:16Z</time>
      </trkpt>
      <trkpt lat="43.34235" lon="-0.2163">
        <ele>321.7</ele>
        <time>2012-02-23T14:05:25Z</time>
      </trkpt>
      <trkpt lat="43.34238" lon="-0.21616">
        <ele>322.18</ele>
        <time>2012-02-23T14:05:33Z</time>
      </trkpt>
      <trkpt lat="43.3424" lon="-0.21602">
        <ele>322.18</ele>
        <time>2012-02-23T14:05:41Z</time>
      </trkpt>
      <trkpt lat="43.34243" lon="-0.2159">
        <ele>321.7</ele>
        <time>2012-02-23T14:05:49Z</time>
      </trkpt>
      <trkpt lat="43.34245" lon="-0.21577">
        <ele>321.22</ele>
        <time>2012-02-23T14:05:57Z</time>
      </trkpt>
      <trkpt lat="43.34248" lon="-0.21563">
        <ele>321.7</ele>
        <time>2012-02-23T14:06:05Z</time>
      </trkpt>
      <trkpt lat="43.3425" lon="-0.21549">
        <ele>321.7</ele>
        <time>2012-02-23T14:06:14Z</time>
      </trkpt>
      <trkpt lat="43.34249" lon="-0.21537">
        <ele>321.7</ele>
        <time>2012-02-23T14:06:22Z</time>
      </trkpt>
      <trkpt lat="43.34252" lon="-0.21525">
        <ele>321.22</ele>
        <time>2012-02-23T14:06:31Z</time>
      </trkpt>
      <trkpt lat="43.34255" lon="-0.21512">
        <ele>320.74</ele>
        <time>2012-02-23T14:06:40Z</time>
      </trkpt>
      <trkpt lat="43.34258" lon="-0.21498">
        <ele>320.74</ele>
        <time>2012-02-23T14:06:48Z</time>
      </trkpt>
      <trkpt lat="43.34258" lon="-0.21484">
        <ele>320.74</ele>
        <time>2012-02-23T14:06:56Z</time>
      </trkpt>
      <trkpt lat="43.34257" lon="-0.21467">
        <ele>320.26</ele>
        <time>2012-02-23T14:07:05Z</time>
      </trkpt>
      <trkpt lat="43.34255" lon="-0.21453">
        <ele>319.78</ele>
        <time>2012-02-23T14:07:14Z</time>
      </trkpt>
      <trkpt lat="43.34248" lon="-0.21445">
        <ele>319.3</ele>
        <time>2012-02-23T14:07:24Z</time>
      </trkpt>
      <trkpt lat="43.34248" lon="-0.2143">
        <ele>318.33</ele>
        <time>2012-02-23T14:07:33Z</time>
      </trkpt>
      <trkpt lat="43.34252" lon="-0.21416">
        <ele>318.33</ele>
        <time>2012-02-23T14:07:43Z</time>
      </trkpt>
      <trkpt lat="43.34256" lon="-0.21401">
        <ele>317.85</ele>
        <time>2012-02-23T14:07:53Z</time>
      </trkpt>
      <trkpt lat="43.3426" lon="-0.21387">
        <ele>317.85</ele>
        <time>2012-02-23T14:08:03Z</time>
      </trkpt>
      <trkpt lat="43.34271" lon="-0.21388">
        <ele>317.37</ele>
        <time>2012-02-23T14:08:12Z</time>
      </trkpt>
      <trkpt lat="43.34283" lon="-0.21392">
        <ele>317.85</ele>
        <time>2012-02-23T14:08:21Z</time>
      </trkpt>
      <trkpt lat="43.34294" lon="-0.21395">
        <ele>318.33</ele>
        <time>2012-02-23T14:08:29Z</time>
      </trkpt>
      <trkpt lat="43.34304" lon="-0.21395">
        <ele>318.33</ele>
        <time>2012-02-23T14:08:37Z</time>
      </trkpt>
      <trkpt lat="43.34314" lon="-0.21395">
        <ele>317.85</ele>
        <time>2012-02-23T14:08:45Z</time>
      </trkpt>
      <trkpt lat="43.34324" lon="-0.21395">
        <ele>317.85</ele>
        <time>2012-02-23T14:08:53Z</time>
      </trkpt>
      <trkpt lat="43.34331" lon="-0.21396">
        <ele>317.37</ele>
        <time>2012-02-23T14:09:00Z</time>
      </trkpt>
      <trkpt lat="43.34342" lon="-0.21396">
        <ele>317.37</ele>
        <time>2012-02-23T14:09:08Z</time>
      </trkpt>
      <trkpt lat="43.34351" lon="-0.21392">
        <ele>317.37</ele>
        <time>2012-02-23T14:09:16Z</time>
      </trkpt>
      <trkpt lat="43.34351" lon="-0.21378">
        <ele>316.41</ele>
        <time>2012-02-23T14:09:24Z</time>
      </trkpt>
      <trkpt lat="43.34347" lon="-0.21365">
        <ele>314.97</ele>
        <time>2012-02-23T14:09:32Z</time>
      </trkpt>
      <trkpt lat="43.34338" lon="-0.21355">
        <ele>314.01</ele>
        <time>2012-02-23T14:09:41Z</time>
      </trkpt>
      <trkpt lat="43.3433" lon="-0.21346">
        <ele>313.53</ele>
        <time>2012-02-23T14:09:50Z</time>
      </trkpt>
      <trkpt lat="43.34324" lon="-0.21328">
        <ele>313.53</ele>
        <time>2012-02-23T14:09:59Z</time>
      </trkpt>
      <trkpt lat="43.3432" lon="-0.21315">
        <ele>313.53</ele>
        <time>2012-02-23T14:10:08Z</time>
      </trkpt>
      <trkpt lat="43.34312" lon="-0.21296">
        <ele>314.01</ele>
        <time>2012-02-23T14:10:18Z</time>
      </trkpt>
      <trkpt lat="43.34304" lon="-0.21284">
        <ele>314.01</ele>
        <time>2012-02-23T14:10:28Z</time>
      </trkpt>
      <trkpt lat="43.34297" lon="-0.21275">
        <ele>314.49</ele>
        <time>2012-02-23T14:10:38Z</time>
      </trkpt>
      <trkpt lat="43.34288" lon="-0.2126">
        <ele>314.49</ele>
        <time>2012-02-23T14:10:47Z</time>
      </trkpt>
      <trkpt lat="43.34279" lon="-0.2125">
        <ele>314.97</ele>
        <time>2012-02-23T14:10:56Z</time>
      </trkpt>
      <trkpt lat="43.34272" lon="-0.2124">
        <ele>314.97</ele>
        <time>2012-02-23T14:11:04Z</time>
      </trkpt>
      <trkpt lat="43.34264" lon="-0.21231">
        <ele>315.45</ele>
        <time>2012-02-23T14:11:12Z</time>
      </trkpt>
      <trkpt lat="43.34255" lon="-0.21219">
        <ele>315.45</ele>
        <time>2012-02-23T14:11:22Z</time>
      </trkpt>
      <trkpt lat="43.34247" lon="-0.2121">
        <ele>316.41</ele>
        <time>2012-02-23T14:11:31Z</time>
      </trkpt>
      <trkpt lat="43.34243" lon="-0.21192">
        <ele>316.41</ele>
        <time>2012-02-23T14:11:40Z</time>
      </trkpt>
      <trkpt lat="43.34249" lon="-0.21181">
        <ele>317.37</ele>
        <time>2012-02-23T14:11:49Z</time>
      </trkpt>
      <trkpt lat="43.34256" lon="-0.21171">
        <ele>316.89</ele>
        <time>2012-02-23T14:11:58Z</time>
      </trkpt>
      <trkpt lat="43.34261" lon="-0.21158">
        <ele>317.85</ele>
        <time>2012-02-23T14:12:08Z</time>
      </trkpt>
      <trkpt lat="43.34266" lon="-0.21144">
        <ele>318.33</ele>
        <time>2012-02-23T14:12:18Z</time>
      </trkpt>
      <trkpt lat="43.34272" lon="-0.21131">
        <ele>317.85</ele>
        <time>2012-02-23T14:12:28Z</time>
      </trkpt>
      <trkpt lat="43.34281" lon="-0.2112">
        <ele>317.85</ele>
        <time>2012-02-23T14:12:38Z</time>
      </trkpt>
      <trkpt lat="43.34289" lon="-0.21111">
        <ele>316.89</ele>
        <time>2012-02-23T14:12:46Z</time>
      </trkpt>
      <trkpt lat="43.34298" lon="-0.21102">
        <ele>316.89</ele>
        <time>2012-02-23T14:12:55Z</time>
      </trkpt>
      <trkpt lat="43.34309" lon="-0.21092">
        <ele>316.41</ele>
        <time>2012-02-23T14:13:04Z</time>
      </trkpt>
      <trkpt lat="43.34319" lon="-0.21085">
        <ele>315.93</ele>
        <time>2012-02-23T14:13:13Z</time>
      </trkpt>
      <trkpt lat="43.34331" lon="-0.21082">
        <ele>315.45</ele>
        <time>2012-02-23T14:13:22Z</time>
      </trkpt>
      <trkpt lat="43.3434" lon="-0.21078">
        <ele>314.49</ele>
        <time>2012-02-23T14:13:30Z</time>
      </trkpt>
      <trkpt lat="43.3435" lon="-0.21077">
        <ele>314.01</ele>
        <time>2012-02-23T14:13:37Z</time>
      </trkpt>
      <trkpt lat="43.34361" lon="-0.21073">
        <ele>313.05</ele>
        <time>2012-02-23T14:13:45Z</time>
      </trkpt>
      <trkpt lat="43.34371" lon="-0.21069">
        <ele>313.05</ele>
        <time>2012-02-23T14:13:53Z</time>
      </trkpt>
      <trkpt lat="43.34384" lon="-0.21062">
        <ele>312.09</ele>
        <time>2012-02-23T14:14:02Z</time>
      </trkpt>
      <trkpt lat="43.34391" lon="-0.2105">
        <ele>311.12</ele>
        <time>2012-02-23T14:14:10Z</time>
      </trkpt>
      <trkpt lat="43.34397" lon="-0.21037">
        <ele>310.64</ele>
        <time>2012-02-23T14:14:19Z</time>
      </trkpt>
      <trkpt lat="43.34404" lon="-0.21024">
        <ele>311.12</ele>
        <time>2012-02-23T14:14:27Z</time>
      </trkpt>
      <trkpt lat="43.34412" lon="-0.21011">
        <ele>311.12</ele>
        <time>2012-02-23T14:14:36Z</time>
      </trkpt>
      <trkpt lat="43.34419" lon="-0.20998">
        <ele>310.64</ele>
        <time>2012-02-23T14:14:45Z</time>
      </trkpt>
      <trkpt lat="43.34426" lon="-0.20984">
        <ele>311.12</ele>
        <time>2012-02-23T14:14:54Z</time>
      </trkpt>
      <trkpt lat="43.34435" lon="-0.20973">
        <ele>311.12</ele>
        <time>2012-02-23T14:15:02Z</time>
      </trkpt>
      <trkpt lat="43.34443" lon="-0.20963">
        <ele>311.12</ele>
        <time>2012-02-23T14:15:10Z</time>
      </trkpt>
      <trkpt lat="43.34449" lon="-0.20952">
        <ele>311.12</ele>
        <time>2012-02-23T14:15:20Z</time>
      </trkpt>
      <trkpt lat="43.34458" lon="-0.20941">
        <ele>312.09</ele>
        <time>2012-02-23T14:15:30Z</time>
      </trkpt>
      <trkpt lat="43.34465" lon="-0.20923">
        <ele>312.57</ele>
        <time>2012-02-23T14:15:40Z</time>
      </trkpt>
      <trkpt lat="43.3447" lon="-0.2091">
        <ele>313.05</ele>
        <time>2012-02-23T14:15:49Z</time>
      </trkpt>
      <trkpt lat="43.34477" lon="-0.20897">
        <ele>314.49</ele>
        <time>2012-02-23T14:15:59Z</time>
      </trkpt>
      <trkpt lat="43.34472" lon="-0.20887">
        <ele>314.49</ele>
        <time>2012-02-23T14:16:08Z</time>
      </trkpt>
      <trkpt lat="43.34465" lon="-0.20871">
        <ele>314.01</ele>
        <time>2012-02-23T14:16:17Z</time>
      </trkpt>
      <trkpt lat="43.34458" lon="-0.20858">
        <ele>314.01</ele>
        <time>2012-02-23T14:16:26Z</time>
      </trkpt>
      <trkpt lat="43.34449" lon="-0.20844">
        <ele>314.01</ele>
        <time>2012-02-23T14:16:37Z</time>
      </trkpt>
      <trkpt lat="43.34443" lon="-0.20833">
        <ele>314.01</ele>
        <time>2012-02-23T14:16:46Z</time>
      </trkpt>
      <trkpt lat="43.34435" lon="-0.20819">
        <ele>314.49</ele>
        <time>2012-02-23T14:16:56Z</time>
      </trkpt>
      <trkpt lat="43.34429" lon="-0.20806">
        <ele>314.01</ele>
        <time>2012-02-23T14:17:05Z</time>
      </trkpt>
      <trkpt lat="43.34419" lon="-0.2079">
        <ele>314.01</ele>
        <time>2012-02-23T14:17:17Z</time>
      </trkpt>
      <trkpt lat="43.3441" lon="-0.20773">
        <ele>314.97</ele>
        <time>2012-02-23T14:17:27Z</time>
      </trkpt>
      <trkpt lat="43.34404" lon="-0.20756">
        <ele>314.49</ele>
        <time>2012-02-23T14:17:37Z</time>
      </trkpt>
      <trkpt lat="43.34401" lon="-0.20738">
        <ele>315.45</ele>
        <time>2012-02-23T14:17:49Z</time>
      </trkpt>
      <trkpt lat="43.34406" lon="-0.20725">
        <ele>315.45</ele>
        <time>2012-02-23T14:17:58Z</time>
      </trkpt>
      <trkpt lat="43.3441" lon="-0.20712">
        <ele>315.93</ele>
        <time>2012-02-23T14:18:09Z</time>
      </trkpt>
      <trkpt lat="43.3442" lon="-0.20691">
        <ele>315.93</ele>
        <time>2012-02-23T14:18:23Z</time>
      </trkpt>
      <trkpt lat="43.34425" lon="-0.20674">
        <ele>316.41</ele>
        <time>2012-02-23T14:18:33Z</time>
      </trkpt>
      <trkpt lat="43.3443" lon="-0.20659">
        <ele>315.93</ele>
        <time>2012-02-23T14:18:42Z</time>
      </trkpt>
      <trkpt lat="43.34436" lon="-0.20645">
        <ele>316.41</ele>
        <time>2012-02-23T14:18:50Z</time>
      </trkpt>
      <trkpt lat="43.34441" lon="-0.20632">
        <ele>316.41</ele>
        <time>2012-02-23T14:18:58Z</time>
      </trkpt>
      <trkpt lat="43.34446" lon="-0.20621">
        <ele>316.89</ele>
        <time>2012-02-23T14:19:05Z</time>
      </trkpt>
      <trkpt lat="43.34451" lon="-0.20607">
        <ele>316.41</ele>
        <time>2012-02-23T14:19:13Z</time>
      </trkpt>
      <trkpt lat="43.34456" lon="-0.20594">
        <ele>316.41</ele>
        <time>2012-02-23T14:19:21Z</time>
      </trkpt>
      <trkpt lat="43.3446" lon="-0.20582">
        <ele>316.41</ele>
        <time>2012-02-23T14:19:29Z</time>
      </trkpt>
      <trkpt lat="43.34464" lon="-0.20569">
        <ele>316.89</ele>
        <time>2012-02-23T14:19:37Z</time>
      </trkpt>
      <trkpt lat="43.3447" lon="-0.20557">
        <ele>316.89</ele>
        <time>2012-02-23T14:19:45Z</time>
      </trkpt>
      <trkpt lat="43.34476" lon="-0.20544">
        <ele>317.37</ele>
        <time>2012-02-23T14:19:54Z</time>
      </trkpt>
      <trkpt lat="43.34482" lon="-0.2053">
        <ele>317.85</ele>
        <time>2012-02-23T14:20:02Z</time>
      </trkpt>
      <trkpt lat="43.34489" lon="-0.20518">
        <ele>317.85</ele>
        <time>2012-02-23T14:20:10Z</time>
      </trkpt>
      <trkpt lat="43.34493" lon="-0.20506">
        <ele>318.33</ele>
        <time>2012-02-23T14:20:18Z</time>
      </trkpt>
      <trkpt lat="43.34499" lon="-0.20492">
        <ele>317.85</ele>
        <time>2012-02-23T14:20:26Z</time>
      </trkpt>
      <trkpt lat="43.34505" lon="-0.2048">
        <ele>318.33</ele>
        <time>2012-02-23T14:20:34Z</time>
      </trkpt>
      <trkpt lat="43.34513" lon="-0.20468">
        <ele>318.33</ele>
        <time>2012-02-23T14:20:42Z</time>
      </trkpt>
      <trkpt lat="43.3452" lon="-0.20455">
        <ele>318.81</ele>
        <time>2012-02-23T14:20:49Z</time>
      </trkpt>
      <trkpt lat="43.34526" lon="-0.20444">
        <ele>317.85</ele>
        <time>2012-02-23T14:20:57Z</time>
      </trkpt>
      <trkpt lat="43.34531" lon="-0.20431">
        <ele>318.33</ele>
        <time>2012-02-23T14:21:05Z</time>
      </trkpt>
      <trkpt lat="43.34537" lon="-0.20421">
        <ele>318.81</ele>
        <time>2012-02-23T14:21:12Z</time>
      </trkpt>
      <trkpt lat="43.34543" lon="-0.20409">
        <ele>318.81</ele>
        <time>2012-02-23T14:21:19Z</time>
      </trkpt>
      <trkpt lat="43.34549" lon="-0.20397">
        <ele>318.33</ele>
        <time>2012-02-23T14:21:27Z</time>
      </trkpt>
      <trkpt lat="43.34557" lon="-0.20387">
        <ele>318.33</ele>
        <time>2012-02-23T14:21:35Z</time>
      </trkpt>
      <trkpt lat="43.34565" lon="-0.20375">
        <ele>318.81</ele>
        <time>2012-02-23T14:21:43Z</time>
      </trkpt>
      <trkpt lat="43.34574" lon="-0.20364">
        <ele>318.33</ele>
        <time>2012-02-23T14:21:51Z</time>
      </trkpt>
      <trkpt lat="43.34581" lon="-0.20353">
        <ele>318.81</ele>
        <time>2012-02-23T14:21:59Z</time>
      </trkpt>
      <trkpt lat="43.34589" lon="-0.20343">
        <ele>318.81</ele>
        <time>2012-02-23T14:22:07Z</time>
      </trkpt>
      <trkpt lat="43.34596" lon="-0.20333">
        <ele>319.3</ele>
        <time>2012-02-23T14:22:15Z</time>
      </trkpt>
      <trkpt lat="43.34605" lon="-0.20322">
        <ele>318.81</ele>
        <time>2012-02-23T14:22:24Z</time>
      </trkpt>
      <trkpt lat="43.34613" lon="-0.20312">
        <ele>319.3</ele>
        <time>2012-02-23T14:22:32Z</time>
      </trkpt>
      <trkpt lat="43.34623" lon="-0.20303">
        <ele>318.81</ele>
        <time>2012-02-23T14:22:41Z</time>
      </trkpt>
      <trkpt lat="43.34631" lon="-0.20292">
        <ele>318.81</ele>
        <time>2012-02-23T14:22:50Z</time>
      </trkpt>
      <trkpt lat="43.34639" lon="-0.20281">
        <ele>318.81</ele>
        <time>2012-02-23T14:22:58Z</time>
      </trkpt>
      <trkpt lat="43.34647" lon="-0.20271">
        <ele>318.33</ele>
        <time>2012-02-23T14:23:06Z</time>
      </trkpt>
      <trkpt lat="43.34655" lon="-0.20262">
        <ele>318.33</ele>
        <time>2012-02-23T14:23:13Z</time>
      </trkpt>
      <trkpt lat="43.34664" lon="-0.20251">
        <ele>318.33</ele>
        <time>2012-02-23T14:23:21Z</time>
      </trkpt>
      <trkpt lat="43.34672" lon="-0.20242">
        <ele>318.33</ele>
        <time>2012-02-23T14:23:29Z</time>
      </trkpt>
      <trkpt lat="43.34681" lon="-0.20232">
        <ele>317.85</ele>
        <time>2012-02-23T14:23:37Z</time>
      </trkpt>
      <trkpt lat="43.34689" lon="-0.20222">
        <ele>318.33</ele>
        <time>2012-02-23T14:23:44Z</time>
      </trkpt>
      <trkpt lat="43.34696" lon="-0.20211">
        <ele>317.85</ele>
        <time>2012-02-23T14:23:51Z</time>
      </trkpt>
      <trkpt lat="43.34703" lon="-0.20199">
        <ele>317.37</ele>
        <time>2012-02-23T14:23:58Z</time>
      </trkpt>
      <trkpt lat="43.34708" lon="-0.20187">
        <ele>317.85</ele>
        <time>2012-02-23T14:24:05Z</time>
      </trkpt>
      <trkpt lat="43.34712" lon="-0.20175">
        <ele>316.89</ele>
        <time>2012-02-23T14:24:12Z</time>
      </trkpt>
      <trkpt lat="43.34715" lon="-0.20163">
        <ele>317.37</ele>
        <time>2012-02-23T14:24:19Z</time>
      </trkpt>
      <trkpt lat="43.34719" lon="-0.2015">
        <ele>316.41</ele>
        <time>2012-02-23T14:24:27Z</time>
      </trkpt>
      <trkpt lat="43.34723" lon="-0.20137">
        <ele>315.93</ele>
        <time>2012-02-23T14:24:34Z</time>
      </trkpt>
      <trkpt lat="43.34726" lon="-0.20124">
        <ele>315.93</ele>
        <time>2012-02-23T14:24:41Z</time>
      </trkpt>
      <trkpt lat="43.3473" lon="-0.20111">
        <ele>315.93</ele>
        <time>2012-02-23T14:24:48Z</time>
      </trkpt>
      <trkpt lat="43.34734" lon="-0.20098">
        <ele>315.93</ele>
        <time>2012-02-23T14:24:55Z</time>
      </trkpt>
      <trkpt lat="43.34739" lon="-0.20084">
        <ele>315.45</ele>
        <time>2012-02-23T14:25:02Z</time>
      </trkpt>
      <trkpt lat="43.34744" lon="-0.20071">
        <ele>315.45</ele>
        <time>2012-02-23T14:25:09Z</time>
      </trkpt>
      <trkpt lat="43.34748" lon="-0.20056">
        <ele>314.97</ele>
        <time>2012-02-23T14:25:17Z</time>
      </trkpt>
      <trkpt lat="43.34752" lon="-0.20042">
        <ele>314.97</ele>
        <time>2012-02-23T14:25:24Z</time>
      </trkpt>
      <trkpt lat="43.34753" lon="-0.20028">
        <ele>314.97</ele>
        <time>2012-02-23T14:25:31Z</time>
      </trkpt>
      <trkpt lat="43.34754" lon="-0.20014">
        <ele>314.49</ele>
        <time>2012-02-23T14:25:39Z</time>
      </trkpt>
      <trkpt lat="43.34753" lon="-0.19998">
        <ele>314.49</ele>
        <time>2012-02-23T14:25:47Z</time>
      </trkpt>
      <trkpt lat="43.34749" lon="-0.19981">
        <ele>314.01</ele>
        <time>2012-02-23T14:25:55Z</time>
      </trkpt>
      <trkpt lat="43.34748" lon="-0.19967">
        <ele>314.49</ele>
        <time>2012-02-23T14:26:02Z</time>
      </trkpt>
      <trkpt lat="43.34749" lon="-0.19954">
        <ele>314.01</ele>
        <time>2012-02-23T14:26:09Z</time>
      </trkpt>
      <trkpt lat="43.34752" lon="-0.19941">
        <ele>313.53</ele>
        <time>2012-02-23T14:26:16Z</time>
      </trkpt>
      <trkpt lat="43.34754" lon="-0.19927">
        <ele>313.53</ele>
        <time>2012-02-23T14:26:23Z</time>
      </trkpt>
      <trkpt lat="43.34758" lon="-0.19914">
        <ele>313.05</ele>
        <time>2012-02-23T14:26:30Z</time>
      </trkpt>
      <trkpt lat="43.34758" lon="-0.19901">
        <ele>312.57</ele>
        <time>2012-02-23T14:26:37Z</time>
      </trkpt>
      <trkpt lat="43.34762" lon="-0.19886">
        <ele>312.09</ele>
        <time>2012-02-23T14:26:45Z</time>
      </trkpt>
      <trkpt lat="43.34764" lon="-0.19869">
        <ele>311.12</ele>
        <time>2012-02-23T14:26:53Z</time>
      </trkpt>
      <trkpt lat="43.34768" lon="-0.19855">
        <ele>311.12</ele>
        <time>2012-02-23T14:27:00Z</time>
      </trkpt>
      <trkpt lat="43.34768" lon="-0.1984">
        <ele>311.12</ele>
        <time>2012-02-23T14:27:07Z</time>
      </trkpt>
      <trkpt lat="43.34772" lon="-0.19827">
        <ele>310.64</ele>
        <time>2012-02-23T14:27:14Z</time>
      </trkpt>
      <trkpt lat="43.34776" lon="-0.19816">
        <ele>310.64</ele>
        <time>2012-02-23T14:27:21Z</time>
      </trkpt>
      <trkpt lat="43.34781" lon="-0.19802">
        <ele>310.16</ele>
        <time>2012-02-23T14:27:29Z</time>
      </trkpt>
      <trkpt lat="43.34787" lon="-0.19789">
        <ele>310.16</ele>
        <time>2012-02-23T14:27:36Z</time>
      </trkpt>
      <trkpt lat="43.34791" lon="-0.19778">
        <ele>310.64</ele>
        <time>2012-02-23T14:27:44Z</time>
      </trkpt>
      <trkpt lat="43.34797" lon="-0.19765">
        <ele>310.16</ele>
        <time>2012-02-23T14:27:52Z</time>
      </trkpt>
      <trkpt lat="43.34803" lon="-0.19755">
        <ele>310.16</ele>
        <time>2012-02-23T14:27:59Z</time>
      </trkpt>
      <trkpt lat="43.3481" lon="-0.19744">
        <ele>310.64</ele>
        <time>2012-02-23T14:28:06Z</time>
      </trkpt>
      <trkpt lat="43.34816" lon="-0.19733">
        <ele>309.2</ele>
        <time>2012-02-23T14:28:13Z</time>
      </trkpt>
      <trkpt lat="43.34823" lon="-0.19723">
        <ele>309.2</ele>
        <time>2012-02-23T14:28:20Z</time>
      </trkpt>
      <trkpt lat="43.3483" lon="-0.19711">
        <ele>309.2</ele>
        <time>2012-02-23T14:28:29Z</time>
      </trkpt>
      <trkpt lat="43.34837" lon="-0.197">
        <ele>309.2</ele>
        <time>2012-02-23T14:28:37Z</time>
      </trkpt>
      <trkpt lat="43.34845" lon="-0.19687">
        <ele>309.2</ele>
        <time>2012-02-23T14:28:44Z</time>
      </trkpt>
      <trkpt lat="43.34853" lon="-0.19676">
        <ele>308.72</ele>
        <time>2012-02-23T14:28:52Z</time>
      </trkpt>
      <trkpt lat="43.34863" lon="-0.19664">
        <ele>308.72</ele>
        <time>2012-02-23T14:29:01Z</time>
      </trkpt>
      <trkpt lat="43.34872" lon="-0.19648">
        <ele>308.72</ele>
        <time>2012-02-23T14:29:11Z</time>
      </trkpt>
      <trkpt lat="43.34878" lon="-0.1963">
        <ele>308.24</ele>
        <time>2012-02-23T14:29:20Z</time>
      </trkpt>
      <trkpt lat="43.3488" lon="-0.19613">
        <ele>308.24</ele>
        <time>2012-02-23T14:29:27Z</time>
      </trkpt>
      <trkpt lat="43.34881" lon="-0.19598">
        <ele>307.76</ele>
        <time>2012-02-23T14:29:34Z</time>
      </trkpt>
      <trkpt lat="43.34884" lon="-0.19584">
        <ele>308.24</ele>
        <time>2012-02-23T14:29:42Z</time>
      </trkpt>
      <trkpt lat="43.34885" lon="-0.19569">
        <ele>307.28</ele>
        <time>2012-02-23T14:29:49Z</time>
      </trkpt>
      <trkpt lat="43.3489" lon="-0.19556">
        <ele>307.28</ele>
        <time>2012-02-23T14:29:56Z</time>
      </trkpt>
      <trkpt lat="43.34893" lon="-0.19541">
        <ele>307.28</ele>
        <time>2012-02-23T14:30:03Z</time>
      </trkpt>
      <trkpt lat="43.34891" lon="-0.19526">
        <ele>306.8</ele>
        <time>2012-02-23T14:30:11Z</time>
      </trkpt>
      <trkpt lat="43.34879" lon="-0.19511">
        <ele>306.32</ele>
        <time>2012-02-23T14:30:20Z</time>
      </trkpt>
      <trkpt lat="43.3488" lon="-0.19496">
        <ele>305.84</ele>
        <time>2012-02-23T14:30:31Z</time>
      </trkpt>
      <trkpt lat="43.34883" lon="-0.1948">
        <ele>305.84</ele>
        <time>2012-02-23T14:30:39Z</time>
      </trkpt>
      <trkpt lat="43.34885" lon="-0.19467">
        <ele>305.84</ele>
        <time>2012-02-23T14:30:46Z</time>
      </trkpt>
      <trkpt lat="43.34888" lon="-0.19453">
        <ele>306.32</ele>
        <time>2012-02-23T14:30:54Z</time>
      </trkpt>
      <trkpt lat="43.34893" lon="-0.19441">
        <ele>305.36</ele>
        <time>2012-02-23T14:31:01Z</time>
      </trkpt>
      <trkpt lat="43.34898" lon="-0.19426">
        <ele>304.39</ele>
        <time>2012-02-23T14:31:08Z</time>
      </trkpt>
      <trkpt lat="43.349" lon="-0.19411">
        <ele>303.91</ele>
        <time>2012-02-23T14:31:15Z</time>
      </trkpt>
      <trkpt lat="43.34897" lon="-0.19399">
        <ele>302.95</ele>
        <time>2012-02-23T14:31:21Z</time>
      </trkpt>
      <trkpt lat="43.3489" lon="-0.19387">
        <ele>301.51</ele>
        <time>2012-02-23T14:31:28Z</time>
      </trkpt>
      <trkpt lat="43.34885" lon="-0.19375">
        <ele>300.55</ele>
        <time>2012-02-23T14:31:36Z</time>
      </trkpt>
      <trkpt lat="43.34879" lon="-0.19361">
        <ele>298.63</ele>
        <time>2012-02-23T14:31:44Z</time>
      </trkpt>
      <trkpt lat="43.34871" lon="-0.19341">
        <ele>297.18</ele>
        <time>2012-02-23T14:31:52Z</time>
      </trkpt>
      <trkpt lat="43.34867" lon="-0.19322">
        <ele>296.22</ele>
        <time>2012-02-23T14:32:02Z</time>
      </trkpt>
      <trkpt lat="43.34869" lon="-0.19304">
        <ele>295.74</ele>
        <time>2012-02-23T14:32:11Z</time>
      </trkpt>
      <trkpt lat="43.34874" lon="-0.19291">
        <ele>295.26</ele>
        <time>2012-02-23T14:32:20Z</time>
      </trkpt>
      <trkpt lat="43.3488" lon="-0.19278">
        <ele>295.26</ele>
        <time>2012-02-23T14:32:29Z</time>
      </trkpt>
      <trkpt lat="43.34889" lon="-0.19268">
        <ele>295.26</ele>
        <time>2012-02-23T14:32:36Z</time>
      </trkpt>
      <trkpt lat="43.349" lon="-0.19254">
        <ele>294.78</ele>
        <time>2012-02-23T14:32:44Z</time>
      </trkpt>
      <trkpt lat="43.34908" lon="-0.1924">
        <ele>295.26</ele>
        <time>2012-02-23T14:32:54Z</time>
      </trkpt>
      <trkpt lat="43.34893" lon="-0.19222">
        <ele>294.78</ele>
        <time>2012-02-23T14:33:12Z</time>
      </trkpt>
      <trkpt lat="43.34877" lon="-0.19204">
        <ele>294.78</ele>
        <time>2012-02-23T14:33:22Z</time>
      </trkpt>
      <trkpt lat="43.34862" lon="-0.19191">
        <ele>293.82</ele>
        <time>2012-02-23T14:33:31Z</time>
      </trkpt>
      <trkpt lat="43.34853" lon="-0.19183">
        <ele>293.34</ele>
        <time>2012-02-23T14:33:38Z</time>
      </trkpt>
      <trkpt lat="43.34845" lon="-0.19177">
        <ele>295.74</ele>
        <time>2012-02-23T14:33:45Z</time>
      </trkpt>
      <trkpt lat="43.34838" lon="-0.19169">
        <ele>294.78</ele>
        <time>2012-02-23T14:33:51Z</time>
      </trkpt>
      <trkpt lat="43.34829" lon="-0.19161">
        <ele>297.18</ele>
        <time>2012-02-23T14:33:59Z</time>
      </trkpt>
      <trkpt lat="43.34821" lon="-0.1915">
        <ele>295.26</ele>
        <time>2012-02-23T14:34:08Z</time>
      </trkpt>
      <trkpt lat="43.34813" lon="-0.19139">
        <ele>295.26</ele>
        <time>2012-02-23T14:34:17Z</time>
      </trkpt>
      <trkpt lat="43.34809" lon="-0.19121">
        <ele>295.26</ele>
        <time>2012-02-23T14:34:27Z</time>
      </trkpt>
      <trkpt lat="43.3481" lon="-0.191">
        <ele>295.26</ele>
        <time>2012-02-23T14:34:38Z</time>
      </trkpt>
      <trkpt lat="43.34805" lon="-0.19077">
        <ele>294.78</ele>
        <time>2012-02-23T14:34:48Z</time>
      </trkpt>
      <trkpt lat="43.34799" lon="-0.19057">
        <ele>293.34</ele>
        <time>2012-02-23T14:34:59Z</time>
      </trkpt>
      <trkpt lat="43.34794" lon="-0.19035">
        <ele>291.42</ele>
        <time>2012-02-23T14:35:12Z</time>
      </trkpt>
      <trkpt lat="43.34793" lon="-0.19005">
        <ele>290.94</ele>
        <time>2012-02-23T14:35:27Z</time>
      </trkpt>
      <trkpt lat="43.34795" lon="-0.1898">
        <ele>290.94</ele>
        <time>2012-02-23T14:35:39Z</time>
      </trkpt>
      <trkpt lat="43.34801" lon="-0.18962">
        <ele>291.42</ele>
        <time>2012-02-23T14:35:50Z</time>
      </trkpt>
      <trkpt lat="43.3481" lon="-0.18963">
        <ele>291.9</ele>
        <time>2012-02-23T14:36:01Z</time>
      </trkpt>
      <trkpt lat="43.34817" lon="-0.18973">
        <ele>291.42</ele>
        <time>2012-02-23T14:36:11Z</time>
      </trkpt>
      <trkpt lat="43.34827" lon="-0.18976">
        <ele>290.46</ele>
        <time>2012-02-23T14:36:20Z</time>
      </trkpt>
      <trkpt lat="43.3484" lon="-0.18979">
        <ele>290.46</ele>
        <time>2012-02-23T14:36:30Z</time>
      </trkpt>
      <trkpt lat="43.34855" lon="-0.18978">
        <ele>290.46</ele>
        <time>2012-02-23T14:36:39Z</time>
      </trkpt>
      <trkpt lat="43.3486" lon="-0.1896">
        <ele>290.94</ele>
        <time>2012-02-23T14:36:53Z</time>
      </trkpt>
      <trkpt lat="43.34861" lon="-0.18945">
        <ele>290.46</ele>
        <time>2012-02-23T14:37:07Z</time>
      </trkpt>
      <trkpt lat="43.34861" lon="-0.18921">
        <ele>291.42</ele>
        <time>2012-02-23T14:37:17Z</time>
      </trkpt>
      <trkpt lat="43.34858" lon="-0.18895">
        <ele>291.42</ele>
        <time>2012-02-23T14:37:26Z</time>
      </trkpt>
      <trkpt lat="43.3486" lon="-0.18878">
        <ele>291.42</ele>
        <time>2012-02-23T14:37:36Z</time>
      </trkpt>
      <trkpt lat="43.34863" lon="-0.18863">
        <ele>291.9</ele>
        <time>2012-02-23T14:37:45Z</time>
      </trkpt>
      <trkpt lat="43.34866" lon="-0.18851">
        <ele>291.9</ele>
        <time>2012-02-23T14:37:52Z</time>
      </trkpt>
      <trkpt lat="43.34867" lon="-0.18836">
        <ele>291.42</ele>
        <time>2012-02-23T14:38:00Z</time>
      </trkpt>
      <trkpt lat="43.34869" lon="-0.18821">
        <ele>290.94</ele>
        <time>2012-02-23T14:38:09Z</time>
      </trkpt>
      <trkpt lat="43.34872" lon="-0.18806">
        <ele>291.42</ele>
        <time>2012-02-23T14:38:17Z</time>
      </trkpt>
      <trkpt lat="43.34878" lon="-0.18793">
        <ele>291.9</ele>
        <time>2012-02-23T14:38:26Z</time>
      </trkpt>
      <trkpt lat="43.34886" lon="-0.18779">
        <ele>292.38</ele>
        <time>2012-02-23T14:38:36Z</time>
      </trkpt>
      <trkpt lat="43.34891" lon="-0.18767">
        <ele>293.34</ele>
        <time>2012-02-23T14:38:45Z</time>
      </trkpt>
      <trkpt lat="43.34894" lon="-0.18754">
        <ele>292.86</ele>
        <time>2012-02-23T14:38:54Z</time>
      </trkpt>
      <trkpt lat="43.34898" lon="-0.1874">
        <ele>293.82</ele>
        <time>2012-02-23T14:39:03Z</time>
      </trkpt>
      <trkpt lat="43.34904" lon="-0.18726">
        <ele>294.3</ele>
        <time>2012-02-23T14:39:13Z</time>
      </trkpt>
      <trkpt lat="43.3491" lon="-0.18715">
        <ele>295.74</ele>
        <time>2012-02-23T14:39:22Z</time>
      </trkpt>
      <trkpt lat="43.34919" lon="-0.18703">
        <ele>297.18</ele>
        <time>2012-02-23T14:39:32Z</time>
      </trkpt>
      <trkpt lat="43.34929" lon="-0.18693">
        <ele>297.67</ele>
        <time>2012-02-23T14:39:40Z</time>
      </trkpt>
      <trkpt lat="43.3494" lon="-0.18682">
        <ele>299.11</ele>
        <time>2012-02-23T14:39:50Z</time>
      </trkpt>
      <trkpt lat="43.34947" lon="-0.18672">
        <ele>300.55</ele>
        <time>2012-02-23T14:40:02Z</time>
      </trkpt>
      <trkpt lat="43.34951" lon="-0.1866">
        <ele>301.99</ele>
        <time>2012-02-23T14:40:16Z</time>
      </trkpt>
      <trkpt lat="43.34955" lon="-0.18646">
        <ele>303.43</ele>
        <time>2012-02-23T14:40:27Z</time>
      </trkpt>
      <trkpt lat="43.34957" lon="-0.18633">
        <ele>305.36</ele>
        <time>2012-02-23T14:40:40Z</time>
      </trkpt>
      <trkpt lat="43.34962" lon="-0.1862">
        <ele>306.32</ele>
        <time>2012-02-23T14:40:49Z</time>
      </trkpt>
      <trkpt lat="43.3496" lon="-0.18607">
        <ele>307.76</ele>
        <time>2012-02-23T14:40:59Z</time>
      </trkpt>
      <trkpt lat="43.3496" lon="-0.18595">
        <ele>308.72</ele>
        <time>2012-02-23T14:41:11Z</time>
      </trkpt>
      <trkpt lat="43.34959" lon="-0.18583">
        <ele>310.64</ele>
        <time>2012-02-23T14:41:23Z</time>
      </trkpt>
      <trkpt lat="43.34964" lon="-0.18569">
        <ele>311.6</ele>
        <time>2012-02-23T14:41:35Z</time>
      </trkpt>
      <trkpt lat="43.34971" lon="-0.18559">
        <ele>311.6</ele>
        <time>2012-02-23T14:41:44Z</time>
      </trkpt>
      <trkpt lat="43.34977" lon="-0.18548">
        <ele>312.09</ele>
        <time>2012-02-23T14:41:54Z</time>
      </trkpt>
      <trkpt lat="43.34983" lon="-0.18537">
        <ele>313.05</ele>
        <time>2012-02-23T14:42:05Z</time>
      </trkpt>
      <trkpt lat="43.34991" lon="-0.18527">
        <ele>313.53</ele>
        <time>2012-02-23T14:42:13Z</time>
      </trkpt>
      <trkpt lat="43.35004" lon="-0.18517">
        <ele>314.49</ele>
        <time>2012-02-23T14:42:22Z</time>
      </trkpt>
      <trkpt lat="43.35008" lon="-0.18506">
        <ele>314.49</ele>
        <time>2012-02-23T14:42:33Z</time>
      </trkpt>
      <trkpt lat="43.35015" lon="-0.18495">
        <ele>315.93</ele>
        <time>2012-02-23T14:42:44Z</time>
      </trkpt>
      <trkpt lat="43.35022" lon="-0.18483">
        <ele>316.41</ele>
        <time>2012-02-23T14:42:55Z</time>
      </trkpt>
      <trkpt lat="43.35027" lon="-0.18471">
        <ele>317.85</ele>
        <time>2012-02-23T14:43:05Z</time>
      </trkpt>
      <trkpt lat="43.35034" lon="-0.18459">
        <ele>319.78</ele>
        <time>2012-02-23T14:43:16Z</time>
      </trkpt>
      <trkpt lat="43.3504" lon="-0.18445">
        <ele>320.74</ele>
        <time>2012-02-23T14:43:27Z</time>
      </trkpt>
      <trkpt lat="43.35043" lon="-0.18432">
        <ele>321.7</ele>
        <time>2012-02-23T14:43:38Z</time>
      </trkpt>
      <trkpt lat="43.35042" lon="-0.1842">
        <ele>322.66</ele>
        <time>2012-02-23T14:43:55Z</time>
      </trkpt>
      <trkpt lat="43.35054" lon="-0.18428">
        <ele>322.66</ele>
        <time>2012-02-23T14:44:05Z</time>
      </trkpt>
      <trkpt lat="43.35064" lon="-0.18437">
        <ele>324.1</ele>
        <time>2012-02-23T14:44:15Z</time>
      </trkpt>
      <trkpt lat="43.35073" lon="-0.18447">
        <ele>323.14</ele>
        <time>2012-02-23T14:44:25Z</time>
      </trkpt>
      <trkpt lat="43.35082" lon="-0.18456">
        <ele>323.62</ele>
        <time>2012-02-23T14:44:35Z</time>
      </trkpt>
      <trkpt lat="43.3509" lon="-0.18467">
        <ele>324.1</ele>
        <time>2012-02-23T14:44:44Z</time>
      </trkpt>
      <trkpt lat="43.35101" lon="-0.18479">
        <ele>324.1</ele>
        <time>2012-02-23T14:44:53Z</time>
      </trkpt>
      <trkpt lat="43.35109" lon="-0.18489">
        <ele>324.1</ele>
        <time>2012-02-23T14:45:02Z</time>
      </trkpt>
      <trkpt lat="43.3512" lon="-0.18499">
        <ele>323.62</ele>
        <time>2012-02-23T14:45:13Z</time>
      </trkpt>
      <trkpt lat="43.35129" lon="-0.1851">
        <ele>323.14</ele>
        <time>2012-02-23T14:45:22Z</time>
      </trkpt>
      <trkpt lat="43.35139" lon="-0.1852">
        <ele>322.66</ele>
        <time>2012-02-23T14:45:31Z</time>
      </trkpt>
      <trkpt lat="43.35149" lon="-0.18529">
        <ele>322.66</ele>
        <time>2012-02-23T14:45:40Z</time>
      </trkpt>
      <trkpt lat="43.35158" lon="-0.18537">
        <ele>322.18</ele>
        <time>2012-02-23T14:45:50Z</time>
      </trkpt>
      <trkpt lat="43.35167" lon="-0.18545">
        <ele>321.22</ele>
        <time>2012-02-23T14:45:59Z</time>
      </trkpt>
      <trkpt lat="43.35176" lon="-0.18557">
        <ele>320.74</ele>
        <time>2012-02-23T14:46:08Z</time>
      </trkpt>
      <trkpt lat="43.35186" lon="-0.18565">
        <ele>319.78</ele>
        <time>2012-02-23T14:46:17Z</time>
      </trkpt>
      <trkpt lat="43.35194" lon="-0.18575">
        <ele>318.33</ele>
        <time>2012-02-23T14:46:25Z</time>
      </trkpt>
      <trkpt lat="43.35203" lon="-0.18585">
        <ele>317.85</ele>
        <time>2012-02-23T14:46:33Z</time>
      </trkpt>
      <trkpt lat="43.35212" lon="-0.18595">
        <ele>317.37</ele>
        <time>2012-02-23T14:46:42Z</time>
      </trkpt>
      <trkpt lat="43.35221" lon="-0.18606">
        <ele>317.85</ele>
        <time>2012-02-23T14:46:51Z</time>
      </trkpt>
      <trkpt lat="43.35228" lon="-0.18615">
        <ele>316.89</ele>
        <time>2012-02-23T14:47:00Z</time>
      </trkpt>
      <trkpt lat="43.35235" lon="-0.18628">
        <ele>316.89</ele>
        <time>2012-02-23T14:47:09Z</time>
      </trkpt>
      <trkpt lat="43.35237" lon="-0.18642">
        <ele>316.41</ele>
        <time>2012-02-23T14:47:17Z</time>
      </trkpt>
      <trkpt lat="43.35239" lon="-0.18654">
        <ele>315.93</ele>
        <time>2012-02-23T14:47:24Z</time>
      </trkpt>
      <trkpt lat="43.35239" lon="-0.18669">
        <ele>315.93</ele>
        <time>2012-02-23T14:47:32Z</time>
      </trkpt>
      <trkpt lat="43.3524" lon="-0.18682">
        <ele>315.45</ele>
        <time>2012-02-23T14:47:39Z</time>
      </trkpt>
      <trkpt lat="43.3524" lon="-0.18687">
        <ele>314.97</ele>
        <time>2012-02-23T14:50:21Z</time>
      </trkpt>
      <trkpt lat="43.35241" lon="-0.18694">
        <ele>314.49</ele>
        <time>2012-02-23T14:51:12Z</time>
      </trkpt>
      <trkpt lat="43.35241" lon="-0.18708">
        <ele>314.01</ele>
        <time>2012-02-23T14:51:19Z</time>
      </trkpt>
      <trkpt lat="43.35241" lon="-0.1872">
        <ele>313.05</ele>
        <time>2012-02-23T14:51:26Z</time>
      </trkpt>
      <trkpt lat="43.35241" lon="-0.18732">
        <ele>313.05</ele>
        <time>2012-02-23T14:51:32Z</time>
      </trkpt>
      <trkpt lat="43.35243" lon="-0.18745">
        <ele>312.09</ele>
        <time>2012-02-23T14:51:39Z</time>
      </trkpt>
      <trkpt lat="43.35243" lon="-0.18759">
        <ele>311.6</ele>
        <time>2012-02-23T14:51:46Z</time>
      </trkpt>
      <trkpt lat="43.35244" lon="-0.18772">
        <ele>311.12</ele>
        <time>2012-02-23T14:51:52Z</time>
      </trkpt>
      <trkpt lat="43.35244" lon="-0.18784">
        <ele>310.64</ele>
        <time>2012-02-23T14:51:59Z</time>
      </trkpt>
      <trkpt lat="43.35245" lon="-0.18798">
        <ele>309.68</ele>
        <time>2012-02-23T14:52:07Z</time>
      </trkpt>
      <trkpt lat="43.35245" lon="-0.18813">
        <ele>309.2</ele>
        <time>2012-02-23T14:52:14Z</time>
      </trkpt>
      <trkpt lat="43.35245" lon="-0.18829">
        <ele>308.72</ele>
        <time>2012-02-23T14:52:22Z</time>
      </trkpt>
      <trkpt lat="43.35246" lon="-0.18844">
        <ele>308.24</ele>
        <time>2012-02-23T14:52:32Z</time>
      </trkpt>
      <trkpt lat="43.35246" lon="-0.18861">
        <ele>307.28</ele>
        <time>2012-02-23T14:52:40Z</time>
      </trkpt>
      <trkpt lat="43.35249" lon="-0.18878">
        <ele>306.32</ele>
        <time>2012-02-23T14:52:49Z</time>
      </trkpt>
      <trkpt lat="43.35255" lon="-0.18891">
        <ele>304.88</ele>
        <time>2012-02-23T14:52:58Z</time>
      </trkpt>
      <trkpt lat="43.35264" lon="-0.18904">
        <ele>302.95</ele>
        <time>2012-02-23T14:53:08Z</time>
      </trkpt>
      <trkpt lat="43.35273" lon="-0.18918">
        <ele>302.47</ele>
        <time>2012-02-23T14:53:17Z</time>
      </trkpt>
      <trkpt lat="43.35284" lon="-0.18933">
        <ele>300.55</ele>
        <time>2012-02-23T14:53:26Z</time>
      </trkpt>
      <trkpt lat="43.35294" lon="-0.18942">
        <ele>299.59</ele>
        <time>2012-02-23T14:53:36Z</time>
      </trkpt>
      <trkpt lat="43.35308" lon="-0.18947">
        <ele>297.67</ele>
        <time>2012-02-23T14:53:48Z</time>
      </trkpt>
      <trkpt lat="43.35321" lon="-0.18954">
        <ele>297.18</ele>
        <time>2012-02-23T14:53:59Z</time>
      </trkpt>
      <trkpt lat="43.35334" lon="-0.18961">
        <ele>294.78</ele>
        <time>2012-02-23T14:54:09Z</time>
      </trkpt>
      <trkpt lat="43.35349" lon="-0.18968">
        <ele>292.86</ele>
        <time>2012-02-23T14:54:19Z</time>
      </trkpt>
      <trkpt lat="43.35363" lon="-0.18973">
        <ele>291.9</ele>
        <time>2012-02-23T14:54:26Z</time>
      </trkpt>
      <trkpt lat="43.35376" lon="-0.18975">
        <ele>290.46</ele>
        <time>2012-02-23T14:54:34Z</time>
      </trkpt>
      <trkpt lat="43.35388" lon="-0.18982">
        <ele>289.49</ele>
        <time>2012-02-23T14:54:44Z</time>
      </trkpt>
      <trkpt lat="43.35391" lon="-0.19001">
        <ele>288.53</ele>
        <time>2012-02-23T14:54:54Z</time>
      </trkpt>
      <trkpt lat="43.35394" lon="-0.1902">
        <ele>286.61</ele>
        <time>2012-02-23T14:55:04Z</time>
      </trkpt>
      <trkpt lat="43.35397" lon="-0.19036">
        <ele>286.13</ele>
        <time>2012-02-23T14:55:13Z</time>
      </trkpt>
      <trkpt lat="43.35405" lon="-0.19052">
        <ele>285.17</ele>
        <time>2012-02-23T14:55:22Z</time>
      </trkpt>
      <trkpt lat="43.35415" lon="-0.19062">
        <ele>284.69</ele>
        <time>2012-02-23T14:55:31Z</time>
      </trkpt>
      <trkpt lat="43.35422" lon="-0.19075">
        <ele>283.73</ele>
        <time>2012-02-23T14:55:38Z</time>
      </trkpt>
      <trkpt lat="43.35431" lon="-0.19087">
        <ele>283.25</ele>
        <time>2012-02-23T14:55:45Z</time>
      </trkpt>
      <trkpt lat="43.35439" lon="-0.19093">
        <ele>282.28</ele>
        <time>2012-02-23T14:55:52Z</time>
      </trkpt>
      <trkpt lat="43.35448" lon="-0.19102">
        <ele>281.8</ele>
        <time>2012-02-23T14:56:00Z</time>
      </trkpt>
      <trkpt lat="43.35457" lon="-0.1911">
        <ele>281.32</ele>
        <time>2012-02-23T14:56:07Z</time>
      </trkpt>
      <trkpt lat="43.35466" lon="-0.19117">
        <ele>279.88</ele>
        <time>2012-02-23T14:56:15Z</time>
      </trkpt>
      <trkpt lat="43.35476" lon="-0.19121">
        <ele>279.88</ele>
        <time>2012-02-23T14:56:22Z</time>
      </trkpt>
      <trkpt lat="43.35488" lon="-0.19123">
        <ele>279.4</ele>
        <time>2012-02-23T14:56:29Z</time>
      </trkpt>
      <trkpt lat="43.35498" lon="-0.19135">
        <ele>279.4</ele>
        <time>2012-02-23T14:56:38Z</time>
      </trkpt>
      <trkpt lat="43.35508" lon="-0.19142">
        <ele>279.4</ele>
        <time>2012-02-23T14:56:45Z</time>
      </trkpt>
      <trkpt lat="43.35517" lon="-0.19144">
        <ele>279.4</ele>
        <time>2012-02-23T14:56:53Z</time>
      </trkpt>
      <trkpt lat="43.3553" lon="-0.19145">
        <ele>279.88</ele>
        <time>2012-02-23T14:57:03Z</time>
      </trkpt>
      <trkpt lat="43.35543" lon="-0.19146">
        <ele>280.84</ele>
        <time>2012-02-23T14:57:15Z</time>
      </trkpt>
      <trkpt lat="43.35555" lon="-0.1915">
        <ele>279.88</ele>
        <time>2012-02-23T14:57:25Z</time>
      </trkpt>
      <trkpt lat="43.35562" lon="-0.1916">
        <ele>278.92</ele>
        <time>2012-02-23T14:57:33Z</time>
      </trkpt>
      <trkpt lat="43.35572" lon="-0.19167">
        <ele>278.92</ele>
        <time>2012-02-23T14:57:42Z</time>
      </trkpt>
      <trkpt lat="43.35582" lon="-0.19173">
        <ele>278.44</ele>
        <time>2012-02-23T14:57:50Z</time>
      </trkpt>
      <trkpt lat="43.35593" lon="-0.19179">
        <ele>278.44</ele>
        <time>2012-02-23T14:57:58Z</time>
      </trkpt>
      <trkpt lat="43.35604" lon="-0.19186">
        <ele>278.92</ele>
        <time>2012-02-23T14:58:07Z</time>
      </trkpt>
      <trkpt lat="43.35615" lon="-0.19194">
        <ele>278.44</ele>
        <time>2012-02-23T14:58:16Z</time>
      </trkpt>
      <trkpt lat="43.35625" lon="-0.19201">
        <ele>277.96</ele>
        <time>2012-02-23T14:58:24Z</time>
      </trkpt>
      <trkpt lat="43.35635" lon="-0.19208">
        <ele>277.96</ele>
        <time>2012-02-23T14:58:33Z</time>
      </trkpt>
      <trkpt lat="43.35646" lon="-0.19212">
        <ele>278.44</ele>
        <time>2012-02-23T14:58:42Z</time>
      </trkpt>
      <trkpt lat="43.35657" lon="-0.19218">
        <ele>278.44</ele>
        <time>2012-02-23T14:58:51Z</time>
      </trkpt>
      <trkpt lat="43.35669" lon="-0.19227">
        <ele>277.96</ele>
        <time>2012-02-23T14:59:00Z</time>
      </trkpt>
      <trkpt lat="43.3568" lon="-0.19233">
        <ele>278.44</ele>
        <time>2012-02-23T14:59:09Z</time>
      </trkpt>
      <trkpt lat="43.35691" lon="-0.1924">
        <ele>278.44</ele>
        <time>2012-02-23T14:59:19Z</time>
      </trkpt>
      <trkpt lat="43.357" lon="-0.19251">
        <ele>278.44</ele>
        <time>2012-02-23T14:59:27Z</time>
      </trkpt>
      <trkpt lat="43.35709" lon="-0.1926">
        <ele>278.44</ele>
        <time>2012-02-23T14:59:36Z</time>
      </trkpt>
      <trkpt lat="43.3572" lon="-0.19266">
        <ele>277.96</ele>
        <time>2012-02-23T14:59:45Z</time>
      </trkpt>
      <trkpt lat="43.3573" lon="-0.19269">
        <ele>277.96</ele>
        <time>2012-02-23T14:59:53Z</time>
      </trkpt>
      <trkpt lat="43.35738" lon="-0.19282">
        <ele>277</ele>
        <time>2012-02-23T15:00:03Z</time>
      </trkpt>
      <trkpt lat="43.35749" lon="-0.19282">
        <ele>277.48</ele>
        <time>2012-02-23T15:00:15Z</time>
      </trkpt>
      <trkpt lat="43.35763" lon="-0.1929">
        <ele>277</ele>
        <time>2012-02-23T15:00:24Z</time>
      </trkpt>
      <trkpt lat="43.35774" lon="-0.193">
        <ele>276.52</ele>
        <time>2012-02-23T15:00:33Z</time>
      </trkpt>
      <trkpt lat="43.35782" lon="-0.19314">
        <ele>277</ele>
        <time>2012-02-23T15:00:43Z</time>
      </trkpt>
      <trkpt lat="43.35791" lon="-0.19327">
        <ele>277</ele>
        <time>2012-02-23T15:00:53Z</time>
      </trkpt>
      <trkpt lat="43.35805" lon="-0.19337">
        <ele>277</ele>
        <time>2012-02-23T15:01:05Z</time>
      </trkpt>
      <trkpt lat="43.35818" lon="-0.19343">
        <ele>276.52</ele>
        <time>2012-02-23T15:01:17Z</time>
      </trkpt>
      <trkpt lat="43.35831" lon="-0.19349">
        <ele>276.04</ele>
        <time>2012-02-23T15:01:26Z</time>
      </trkpt>
      <trkpt lat="43.35842" lon="-0.19354">
        <ele>276.52</ele>
        <time>2012-02-23T15:01:34Z</time>
      </trkpt>
      <trkpt lat="43.35859" lon="-0.19357">
        <ele>276.04</ele>
        <time>2012-02-23T15:01:48Z</time>
      </trkpt>
      <trkpt lat="43.35873" lon="-0.19362">
        <ele>276.04</ele>
        <time>2012-02-23T15:01:57Z</time>
      </trkpt>
      <trkpt lat="43.35883" lon="-0.19369">
        <ele>276.04</ele>
        <time>2012-02-23T15:02:06Z</time>
      </trkpt>
      <trkpt lat="43.35892" lon="-0.1938">
        <ele>276.04</ele>
        <time>2012-02-23T15:02:15Z</time>
      </trkpt>
      <trkpt lat="43.35906" lon="-0.19386">
        <ele>276.04</ele>
        <time>2012-02-23T15:02:28Z</time>
      </trkpt>
      <trkpt lat="43.35917" lon="-0.19384">
        <ele>275.07</ele>
        <time>2012-02-23T15:02:41Z</time>
      </trkpt>
      <trkpt lat="43.35926" lon="-0.19386">
        <ele>275.07</ele>
        <time>2012-02-23T15:02:49Z</time>
      </trkpt>
      <trkpt lat="43.35944" lon="-0.19392">
        <ele>275.56</ele>
        <time>2012-02-23T15:03:01Z</time>
      </trkpt>
      <trkpt lat="43.3595" lon="-0.19401">
        <ele>275.07</ele>
        <time>2012-02-23T15:03:13Z</time>
      </trkpt>
      <trkpt lat="43.35961" lon="-0.194">
        <ele>274.59</ele>
        <time>2012-02-23T15:03:23Z</time>
      </trkpt>
      <trkpt lat="43.35973" lon="-0.19408">
        <ele>274.59</ele>
        <time>2012-02-23T15:03:32Z</time>
      </trkpt>
      <trkpt lat="43.3598" lon="-0.19421">
        <ele>274.59</ele>
        <time>2012-02-23T15:03:41Z</time>
      </trkpt>
      <trkpt lat="43.3599" lon="-0.1943">
        <ele>274.59</ele>
        <time>2012-02-23T15:03:51Z</time>
      </trkpt>
      <trkpt lat="43.36003" lon="-0.1944">
        <ele>273.63</ele>
        <time>2012-02-23T15:04:02Z</time>
      </trkpt>
      <trkpt lat="43.36012" lon="-0.19454">
        <ele>273.63</ele>
        <time>2012-02-23T15:04:12Z</time>
      </trkpt>
      <trkpt lat="43.36022" lon="-0.19458">
        <ele>273.15</ele>
        <time>2012-02-23T15:04:20Z</time>
      </trkpt>
      <trkpt lat="43.36032" lon="-0.19464">
        <ele>272.67</ele>
        <time>2012-02-23T15:04:29Z</time>
      </trkpt>
      <trkpt lat="43.36044" lon="-0.1947">
        <ele>273.63</ele>
        <time>2012-02-23T15:04:41Z</time>
      </trkpt>
      <trkpt lat="43.36052" lon="-0.19456">
        <ele>274.59</ele>
        <time>2012-02-23T15:04:52Z</time>
      </trkpt>
      <trkpt lat="43.36057" lon="-0.19444">
        <ele>274.59</ele>
        <time>2012-02-23T15:05:02Z</time>
      </trkpt>
      <trkpt lat="43.36071" lon="-0.19449">
        <ele>274.11</ele>
        <time>2012-02-23T15:05:13Z</time>
      </trkpt>
      <trkpt lat="43.36082" lon="-0.19459">
        <ele>274.11</ele>
        <time>2012-02-23T15:05:23Z</time>
      </trkpt>
      <trkpt lat="43.36091" lon="-0.19468">
        <ele>274.11</ele>
        <time>2012-02-23T15:05:32Z</time>
      </trkpt>
      <trkpt lat="43.36099" lon="-0.19476">
        <ele>274.11</ele>
        <time>2012-02-23T15:05:40Z</time>
      </trkpt>
      <trkpt lat="43.3611" lon="-0.19484">
        <ele>273.63</ele>
        <time>2012-02-23T15:05:50Z</time>
      </trkpt>
      <trkpt lat="43.36121" lon="-0.19493">
        <ele>273.63</ele>
        <time>2012-02-23T15:05:59Z</time>
      </trkpt>
      <trkpt lat="43.36131" lon="-0.19502">
        <ele>273.63</ele>
        <time>2012-02-23T15:06:08Z</time>
      </trkpt>
      <trkpt lat="43.36139" lon="-0.1951">
        <ele>272.67</ele>
        <time>2012-02-23T15:06:17Z</time>
      </trkpt>
      <trkpt lat="43.36151" lon="-0.19519">
        <ele>272.67</ele>
        <time>2012-02-23T15:06:28Z</time>
      </trkpt>
      <trkpt lat="43.36163" lon="-0.19532">
        <ele>271.23</ele>
        <time>2012-02-23T15:06:39Z</time>
      </trkpt>
      <trkpt lat="43.36172" lon="-0.19545">
        <ele>271.71</ele>
        <time>2012-02-23T15:06:50Z</time>
      </trkpt>
      <trkpt lat="43.36184" lon="-0.19555">
        <ele>272.19</ele>
        <time>2012-02-23T15:07:00Z</time>
      </trkpt>
      <trkpt lat="43.36195" lon="-0.19565">
        <ele>272.19</ele>
        <time>2012-02-23T15:07:09Z</time>
      </trkpt>
      <trkpt lat="43.36203" lon="-0.19574">
        <ele>271.71</ele>
        <time>2012-02-23T15:07:18Z</time>
      </trkpt>
      <trkpt lat="43.36216" lon="-0.19588">
        <ele>271.71</ele>
        <time>2012-02-23T15:07:30Z</time>
      </trkpt>
      <trkpt lat="43.36224" lon="-0.19598">
        <ele>272.19</ele>
        <time>2012-02-23T15:07:39Z</time>
      </trkpt>
      <trkpt lat="43.36234" lon="-0.19607">
        <ele>271.71</ele>
        <time>2012-02-23T15:07:49Z</time>
      </trkpt>
      <trkpt lat="43.36244" lon="-0.19618">
        <ele>271.71</ele>
        <time>2012-02-23T15:07:59Z</time>
      </trkpt>
      <trkpt lat="43.36255" lon="-0.19624">
        <ele>272.67</ele>
        <time>2012-02-23T15:08:09Z</time>
      </trkpt>
      <trkpt lat="43.36265" lon="-0.19634">
        <ele>272.19</ele>
        <time>2012-02-23T15:08:21Z</time>
      </trkpt>
      <trkpt lat="43.36276" lon="-0.19642">
        <ele>271.71</ele>
        <time>2012-02-23T15:08:38Z</time>
      </trkpt>
      <trkpt lat="43.3629" lon="-0.19647">
        <ele>272.19</ele>
        <time>2012-02-23T15:08:49Z</time>
      </trkpt>
      <trkpt lat="43.36304" lon="-0.19653">
        <ele>271.23</ele>
        <time>2012-02-23T15:09:00Z</time>
      </trkpt>
      <trkpt lat="43.36315" lon="-0.19659">
        <ele>271.23</ele>
        <time>2012-02-23T15:09:10Z</time>
      </trkpt>
      <trkpt lat="43.36329" lon="-0.19661">
        <ele>271.23</ele>
        <time>2012-02-23T15:09:21Z</time>
      </trkpt>
      <trkpt lat="43.36347" lon="-0.19661">
        <ele>271.23</ele>
        <time>2012-02-23T15:09:39Z</time>
      </trkpt>
      <trkpt lat="43.36367" lon="-0.1966">
        <ele>270.75</ele>
        <time>2012-02-23T15:09:53Z</time>
      </trkpt>
      <trkpt lat="43.36383" lon="-0.19661">
        <ele>271.23</ele>
        <time>2012-02-23T15:10:04Z</time>
      </trkpt>
      <trkpt lat="43.36395" lon="-0.19656">
        <ele>271.23</ele>
        <time>2012-02-23T15:10:15Z</time>
      </trkpt>
      <trkpt lat="43.36405" lon="-0.19654">
        <ele>270.75</ele>
        <time>2012-02-23T15:10:25Z</time>
      </trkpt>
      <trkpt lat="43.36416" lon="-0.19654">
        <ele>270.75</ele>
        <time>2012-02-23T15:10:37Z</time>
      </trkpt>
      <trkpt lat="43.36433" lon="-0.19653">
        <ele>270.75</ele>
        <time>2012-02-23T15:10:51Z</time>
      </trkpt>
      <trkpt lat="43.36446" lon="-0.19655">
        <ele>271.23</ele>
        <time>2012-02-23T15:11:01Z</time>
      </trkpt>
      <trkpt lat="43.36459" lon="-0.19657">
        <ele>271.71</ele>
        <time>2012-02-23T15:11:11Z</time>
      </trkpt>
      <trkpt lat="43.36472" lon="-0.19659">
        <ele>271.23</ele>
        <time>2012-02-23T15:11:22Z</time>
      </trkpt>
      <trkpt lat="43.36485" lon="-0.19662">
        <ele>271.23</ele>
        <time>2012-02-23T15:11:32Z</time>
      </trkpt>
      <trkpt lat="43.36498" lon="-0.19667">
        <ele>271.23</ele>
        <time>2012-02-23T15:11:45Z</time>
      </trkpt>
      <trkpt lat="43.3651" lon="-0.19673">
        <ele>271.71</ele>
        <time>2012-02-23T15:11:57Z</time>
      </trkpt>
      <trkpt lat="43.36523" lon="-0.19679">
        <ele>271.23</ele>
        <time>2012-02-23T15:12:07Z</time>
      </trkpt>
      <trkpt lat="43.36534" lon="-0.19684">
        <ele>271.71</ele>
        <time>2012-02-23T15:12:18Z</time>
      </trkpt>
      <trkpt lat="43.36545" lon="-0.19692">
        <ele>272.19</ele>
        <time>2012-02-23T15:12:28Z</time>
      </trkpt>
      <trkpt lat="43.36554" lon="-0.19702">
        <ele>271.71</ele>
        <time>2012-02-23T15:12:37Z</time>
      </trkpt>
      <trkpt lat="43.36562" lon="-0.1971">
        <ele>271.71</ele>
        <time>2012-02-23T15:12:45Z</time>
      </trkpt>
      <trkpt lat="43.36569" lon="-0.19722">
        <ele>272.19</ele>
        <time>2012-02-23T15:12:54Z</time>
      </trkpt>
      <trkpt lat="43.36575" lon="-0.19732">
        <ele>271.71</ele>
        <time>2012-02-23T15:13:02Z</time>
      </trkpt>
      <trkpt lat="43.36583" lon="-0.19741">
        <ele>272.19</ele>
        <time>2012-02-23T15:13:11Z</time>
      </trkpt>
      <trkpt lat="43.36591" lon="-0.19749">
        <ele>272.67</ele>
        <time>2012-02-23T15:13:19Z</time>
      </trkpt>
      <trkpt lat="43.36598" lon="-0.19759">
        <ele>271.71</ele>
        <time>2012-02-23T15:13:27Z</time>
      </trkpt>
      <trkpt lat="43.36606" lon="-0.19768">
        <ele>271.71</ele>
        <time>2012-02-23T15:13:35Z</time>
      </trkpt>
      <trkpt lat="43.36615" lon="-0.19777">
        <ele>271.71</ele>
        <time>2012-02-23T15:13:43Z</time>
      </trkpt>
      <trkpt lat="43.36623" lon="-0.19785">
        <ele>270.75</ele>
        <time>2012-02-23T15:13:51Z</time>
      </trkpt>
      <trkpt lat="43.3663" lon="-0.19791">
        <ele>270.75</ele>
        <time>2012-02-23T15:14:13Z</time>
      </trkpt>
      <trkpt lat="43.3664" lon="-0.19798">
        <ele>270.75</ele>
        <time>2012-02-23T15:14:21Z</time>
      </trkpt>
      <trkpt lat="43.36648" lon="-0.19808">
        <ele>270.75</ele>
        <time>2012-02-23T15:14:30Z</time>
      </trkpt>
      <trkpt lat="43.36656" lon="-0.19817">
        <ele>269.79</ele>
        <time>2012-02-23T15:14:40Z</time>
      </trkpt>
      <trkpt lat="43.36662" lon="-0.19828">
        <ele>269.31</ele>
        <time>2012-02-23T15:14:47Z</time>
      </trkpt>
      <trkpt lat="43.36667" lon="-0.19843">
        <ele>268.35</ele>
        <time>2012-02-23T15:14:56Z</time>
      </trkpt>
      <trkpt lat="43.36675" lon="-0.19856">
        <ele>268.35</ele>
        <time>2012-02-23T15:15:05Z</time>
      </trkpt>
      <trkpt lat="43.36681" lon="-0.19869">
        <ele>267.86</ele>
        <time>2012-02-23T15:15:14Z</time>
      </trkpt>
      <trkpt lat="43.36685" lon="-0.19886">
        <ele>267.86</ele>
        <time>2012-02-23T15:15:22Z</time>
      </trkpt>
      <trkpt lat="43.36688" lon="-0.19902">
        <ele>267.86</ele>
        <time>2012-02-23T15:15:30Z</time>
      </trkpt>
      <trkpt lat="43.3669" lon="-0.19916">
        <ele>266.9</ele>
        <time>2012-02-23T15:15:39Z</time>
      </trkpt>
      <trkpt lat="43.36693" lon="-0.1993">
        <ele>267.38</ele>
        <time>2012-02-23T15:15:50Z</time>
      </trkpt>
      <trkpt lat="43.36684" lon="-0.19946">
        <ele>267.38</ele>
        <time>2012-02-23T15:15:59Z</time>
      </trkpt>
      <trkpt lat="43.36675" lon="-0.19958">
        <ele>266.42</ele>
        <time>2012-02-23T15:16:08Z</time>
      </trkpt>
      <trkpt lat="43.36667" lon="-0.19966">
        <ele>266.9</ele>
        <time>2012-02-23T15:16:16Z</time>
      </trkpt>
      <trkpt lat="43.36659" lon="-0.19975">
        <ele>266.9</ele>
        <time>2012-02-23T15:16:26Z</time>
      </trkpt>
      <trkpt lat="43.3665" lon="-0.19985">
        <ele>266.9</ele>
        <time>2012-02-23T15:16:37Z</time>
      </trkpt>
      <trkpt lat="43.36641" lon="-0.19993">
        <ele>266.42</ele>
        <time>2012-02-23T15:16:59Z</time>
      </trkpt>
      <trkpt lat="43.36632" lon="-0.20003">
        <ele>266.42</ele>
        <time>2012-02-23T15:17:07Z</time>
      </trkpt>
      <trkpt lat="43.36622" lon="-0.20015">
        <ele>266.42</ele>
        <time>2012-02-23T15:17:15Z</time>
      </trkpt>
      <trkpt lat="43.36612" lon="-0.20023">
        <ele>266.42</ele>
        <time>2012-02-23T15:17:23Z</time>
      </trkpt>
      <trkpt lat="43.36602" lon="-0.20032">
        <ele>266.42</ele>
        <time>2012-02-23T15:17:31Z</time>
      </trkpt>
      <trkpt lat="43.36593" lon="-0.20042">
        <ele>266.9</ele>
        <time>2012-02-23T15:17:39Z</time>
      </trkpt>
      <trkpt lat="43.36583" lon="-0.2005">
        <ele>267.86</ele>
        <time>2012-02-23T15:17:46Z</time>
      </trkpt>
      <trkpt lat="43.36573" lon="-0.20058">
        <ele>267.86</ele>
        <time>2012-02-23T15:17:54Z</time>
      </trkpt>
      <trkpt lat="43.36564" lon="-0.20067">
        <ele>268.35</ele>
        <time>2012-02-23T15:18:01Z</time>
      </trkpt>
      <trkpt lat="43.36555" lon="-0.20077">
        <ele>268.35</ele>
        <time>2012-02-23T15:18:09Z</time>
      </trkpt>
      <trkpt lat="43.36546" lon="-0.20087">
        <ele>269.31</ele>
        <time>2012-02-23T15:18:18Z</time>
      </trkpt>
      <trkpt lat="43.3654" lon="-0.201">
        <ele>269.31</ele>
        <time>2012-02-23T15:18:26Z</time>
      </trkpt>
      <trkpt lat="43.36533" lon="-0.20111">
        <ele>268.83</ele>
        <time>2012-02-23T15:18:34Z</time>
      </trkpt>
      <trkpt lat="43.36522" lon="-0.20109">
        <ele>269.31</ele>
        <time>2012-02-23T15:18:42Z</time>
      </trkpt>
      <trkpt lat="43.36513" lon="-0.20103">
        <ele>269.79</ele>
        <time>2012-02-23T15:18:50Z</time>
      </trkpt>
      <trkpt lat="43.36502" lon="-0.20096">
        <ele>269.79</ele>
        <time>2012-02-23T15:18:58Z</time>
      </trkpt>
      <trkpt lat="43.36492" lon="-0.20092">
        <ele>269.79</ele>
        <time>2012-02-23T15:19:06Z</time>
      </trkpt>
      <trkpt lat="43.36482" lon="-0.20092">
        <ele>270.27</ele>
        <time>2012-02-23T15:19:14Z</time>
      </trkpt>
      <trkpt lat="43.36471" lon="-0.20093">
        <ele>270.75</ele>
        <time>2012-02-23T15:19:21Z</time>
      </trkpt>
      <trkpt lat="43.36461" lon="-0.20097">
        <ele>271.23</ele>
        <time>2012-02-23T15:19:28Z</time>
      </trkpt>
      <trkpt lat="43.36452" lon="-0.20102">
        <ele>271.23</ele>
        <time>2012-02-23T15:19:35Z</time>
      </trkpt>
      <trkpt lat="43.36443" lon="-0.20107">
        <ele>272.19</ele>
        <time>2012-02-23T15:19:43Z</time>
      </trkpt>
      <trkpt lat="43.36435" lon="-0.20111">
        <ele>273.15</ele>
        <time>2012-02-23T15:19:50Z</time>
      </trkpt>
      <trkpt lat="43.36425" lon="-0.20116">
        <ele>273.15</ele>
        <time>2012-02-23T15:19:58Z</time>
      </trkpt>
      <trkpt lat="43.36415" lon="-0.20119">
        <ele>273.15</ele>
        <time>2012-02-23T15:20:06Z</time>
      </trkpt>
      <trkpt lat="43.36405" lon="-0.20123">
        <ele>273.63</ele>
        <time>2012-02-23T15:20:14Z</time>
      </trkpt>
      <trkpt lat="43.36395" lon="-0.20127">
        <ele>273.15</ele>
        <time>2012-02-23T15:20:22Z</time>
      </trkpt>
      <trkpt lat="43.36385" lon="-0.20132">
        <ele>273.63</ele>
        <time>2012-02-23T15:20:30Z</time>
      </trkpt>
      <trkpt lat="43.36375" lon="-0.20137">
        <ele>273.63</ele>
        <time>2012-02-23T15:20:38Z</time>
      </trkpt>
      <trkpt lat="43.36367" lon="-0.20143">
        <ele>274.59</ele>
        <time>2012-02-23T15:20:45Z</time>
      </trkpt>
      <trkpt lat="43.36358" lon="-0.20148">
        <ele>274.59</ele>
        <time>2012-02-23T15:20:52Z</time>
      </trkpt>
      <trkpt lat="43.36349" lon="-0.20155">
        <ele>275.56</ele>
        <time>2012-02-23T15:21:00Z</time>
      </trkpt>
      <trkpt lat="43.3634" lon="-0.20163">
        <ele>276.04</ele>
        <time>2012-02-23T15:21:09Z</time>
      </trkpt>
      <trkpt lat="43.36332" lon="-0.20173">
        <ele>277</ele>
        <time>2012-02-23T15:21:17Z</time>
      </trkpt>
      <trkpt lat="43.36324" lon="-0.20183">
        <ele>278.44</ele>
        <time>2012-02-23T15:21:26Z</time>
      </trkpt>
      <trkpt lat="43.36317" lon="-0.20194">
        <ele>278.92</ele>
        <time>2012-02-23T15:21:36Z</time>
      </trkpt>
      <trkpt lat="43.36311" lon="-0.20206">
        <ele>279.88</ele>
        <time>2012-02-23T15:21:44Z</time>
      </trkpt>
      <trkpt lat="43.36302" lon="-0.20209">
        <ele>280.36</ele>
        <time>2012-02-23T15:21:55Z</time>
      </trkpt>
      <trkpt lat="43.36292" lon="-0.20209">
        <ele>280.84</ele>
        <time>2012-02-23T15:22:03Z</time>
      </trkpt>
      <trkpt lat="43.3628" lon="-0.20212">
        <ele>281.32</ele>
        <time>2012-02-23T15:22:12Z</time>
      </trkpt>
      <trkpt lat="43.36269" lon="-0.20216">
        <ele>281.32</ele>
        <time>2012-02-23T15:22:21Z</time>
      </trkpt>
      <trkpt lat="43.3626" lon="-0.20223">
        <ele>281.8</ele>
        <time>2012-02-23T15:22:30Z</time>
      </trkpt>
      <trkpt lat="43.36247" lon="-0.20228">
        <ele>282.28</ele>
        <time>2012-02-23T15:22:39Z</time>
      </trkpt>
      <trkpt lat="43.36237" lon="-0.2023">
        <ele>282.77</ele>
        <time>2012-02-23T15:22:48Z</time>
      </trkpt>
      <trkpt lat="43.36227" lon="-0.20234">
        <ele>282.77</ele>
        <time>2012-02-23T15:22:56Z</time>
      </trkpt>
      <trkpt lat="43.36217" lon="-0.20237">
        <ele>282.77</ele>
        <time>2012-02-23T15:23:04Z</time>
      </trkpt>
      <trkpt lat="43.36207" lon="-0.20238">
        <ele>283.25</ele>
        <time>2012-02-23T15:23:12Z</time>
      </trkpt>
      <trkpt lat="43.36198" lon="-0.20241">
        <ele>283.25</ele>
        <time>2012-02-23T15:23:19Z</time>
      </trkpt>
      <trkpt lat="43.36188" lon="-0.20244">
        <ele>283.25</ele>
        <time>2012-02-23T15:23:27Z</time>
      </trkpt>
      <trkpt lat="43.36177" lon="-0.20246">
        <ele>282.77</ele>
        <time>2012-02-23T15:23:35Z</time>
      </trkpt>
      <trkpt lat="43.36168" lon="-0.20249">
        <ele>283.25</ele>
        <time>2012-02-23T15:23:42Z</time>
      </trkpt>
      <trkpt lat="43.36156" lon="-0.20252">
        <ele>283.73</ele>
        <time>2012-02-23T15:23:50Z</time>
      </trkpt>
      <trkpt lat="43.36145" lon="-0.20254">
        <ele>283.73</ele>
        <time>2012-02-23T15:23:59Z</time>
      </trkpt>
      <trkpt lat="43.36134" lon="-0.20257">
        <ele>283.73</ele>
        <time>2012-02-23T15:24:08Z</time>
      </trkpt>
      <trkpt lat="43.36121" lon="-0.20262">
        <ele>284.21</ele>
        <time>2012-02-23T15:24:19Z</time>
      </trkpt>
      <trkpt lat="43.36107" lon="-0.20265">
        <ele>285.17</ele>
        <time>2012-02-23T15:24:30Z</time>
      </trkpt>
      <trkpt lat="43.36095" lon="-0.20268">
        <ele>285.65</ele>
        <time>2012-02-23T15:24:40Z</time>
      </trkpt>
      <trkpt lat="43.36081" lon="-0.20271">
        <ele>285.65</ele>
        <time>2012-02-23T15:24:49Z</time>
      </trkpt>
      <trkpt lat="43.36068" lon="-0.20275">
        <ele>286.61</ele>
        <time>2012-02-23T15:24:59Z</time>
      </trkpt>
      <trkpt lat="43.36055" lon="-0.2028">
        <ele>286.61</ele>
        <time>2012-02-23T15:25:09Z</time>
      </trkpt>
      <trkpt lat="43.36046" lon="-0.20288">
        <ele>286.13</ele>
        <time>2012-02-23T15:25:17Z</time>
      </trkpt>
      <trkpt lat="43.36038" lon="-0.20296">
        <ele>286.13</ele>
        <time>2012-02-23T15:25:25Z</time>
      </trkpt>
      <trkpt lat="43.36029" lon="-0.20305">
        <ele>286.61</ele>
        <time>2012-02-23T15:25:33Z</time>
      </trkpt>
      <trkpt lat="43.36019" lon="-0.20314">
        <ele>287.09</ele>
        <time>2012-02-23T15:25:41Z</time>
      </trkpt>
      <trkpt lat="43.36012" lon="-0.20323">
        <ele>287.09</ele>
        <time>2012-02-23T15:25:49Z</time>
      </trkpt>
      <trkpt lat="43.36003" lon="-0.20332">
        <ele>287.09</ele>
        <time>2012-02-23T15:25:59Z</time>
      </trkpt>
      <trkpt lat="43.35991" lon="-0.20344">
        <ele>287.57</ele>
        <time>2012-02-23T15:26:10Z</time>
      </trkpt>
      <trkpt lat="43.35981" lon="-0.20355">
        <ele>287.57</ele>
        <time>2012-02-23T15:26:20Z</time>
      </trkpt>
      <trkpt lat="43.35969" lon="-0.20368">
        <ele>288.05</ele>
        <time>2012-02-23T15:26:31Z</time>
      </trkpt>
      <trkpt lat="43.35959" lon="-0.2038">
        <ele>288.05</ele>
        <time>2012-02-23T15:26:40Z</time>
      </trkpt>
      <trkpt lat="43.35949" lon="-0.20392">
        <ele>287.57</ele>
        <time>2012-02-23T15:26:49Z</time>
      </trkpt>
      <trkpt lat="43.35941" lon="-0.20401">
        <ele>287.57</ele>
        <time>2012-02-23T15:26:58Z</time>
      </trkpt>
      <trkpt lat="43.3593" lon="-0.20412">
        <ele>288.05</ele>
        <time>2012-02-23T15:27:08Z</time>
      </trkpt>
      <trkpt lat="43.35915" lon="-0.20416">
        <ele>288.53</ele>
        <time>2012-02-23T15:27:20Z</time>
      </trkpt>
      <trkpt lat="43.35902" lon="-0.20415">
        <ele>288.53</ele>
        <time>2012-02-23T15:27:30Z</time>
      </trkpt>
      <trkpt lat="43.35888" lon="-0.2041">
        <ele>288.53</ele>
        <time>2012-02-23T15:27:41Z</time>
      </trkpt>
      <trkpt lat="43.35871" lon="-0.20416">
        <ele>289.01</ele>
        <time>2012-02-23T15:27:55Z</time>
      </trkpt>
      <trkpt lat="43.35863" lon="-0.20428">
        <ele>289.49</ele>
        <time>2012-02-23T15:28:03Z</time>
      </trkpt>
      <trkpt lat="43.35858" lon="-0.2044">
        <ele>289.01</ele>
        <time>2012-02-23T15:28:10Z</time>
      </trkpt>
      <trkpt lat="43.35855" lon="-0.20453">
        <ele>289.49</ele>
        <time>2012-02-23T15:28:17Z</time>
      </trkpt>
      <trkpt lat="43.35852" lon="-0.20465">
        <ele>289.49</ele>
        <time>2012-02-23T15:28:24Z</time>
      </trkpt>
      <trkpt lat="43.35848" lon="-0.20479">
        <ele>290.46</ele>
        <time>2012-02-23T15:28:32Z</time>
      </trkpt>
      <trkpt lat="43.35844" lon="-0.20492">
        <ele>291.42</ele>
        <time>2012-02-23T15:28:40Z</time>
      </trkpt>
      <trkpt lat="43.35838" lon="-0.20504">
        <ele>291.9</ele>
        <time>2012-02-23T15:28:48Z</time>
      </trkpt>
      <trkpt lat="43.35832" lon="-0.20519">
        <ele>293.34</ele>
        <time>2012-02-23T15:28:58Z</time>
      </trkpt>
      <trkpt lat="43.35825" lon="-0.20531">
        <ele>294.3</ele>
        <time>2012-02-23T15:29:07Z</time>
      </trkpt>
      <trkpt lat="43.35819" lon="-0.20544">
        <ele>294.78</ele>
        <time>2012-02-23T15:29:16Z</time>
      </trkpt>
      <trkpt lat="43.35813" lon="-0.20558">
        <ele>295.74</ele>
        <time>2012-02-23T15:29:25Z</time>
      </trkpt>
      <trkpt lat="43.35807" lon="-0.20569">
        <ele>296.7</ele>
        <time>2012-02-23T15:29:33Z</time>
      </trkpt>
      <trkpt lat="43.35802" lon="-0.20583">
        <ele>297.18</ele>
        <time>2012-02-23T15:29:41Z</time>
      </trkpt>
      <trkpt lat="43.35797" lon="-0.20594">
        <ele>297.67</ele>
        <time>2012-02-23T15:29:49Z</time>
      </trkpt>
      <trkpt lat="43.3579" lon="-0.20583">
        <ele>297.67</ele>
        <time>2012-02-23T15:30:23Z</time>
      </trkpt>
      <trkpt lat="43.35793" lon="-0.20597">
        <ele>297.67</ele>
        <time>2012-02-23T15:30:32Z</time>
      </trkpt>
      <trkpt lat="43.3579" lon="-0.2061">
        <ele>297.18</ele>
        <time>2012-02-23T15:30:38Z</time>
      </trkpt>
      <trkpt lat="43.35782" lon="-0.2062">
        <ele>297.67</ele>
        <time>2012-02-23T15:30:45Z</time>
      </trkpt>
      <trkpt lat="43.35774" lon="-0.20631">
        <ele>298.15</ele>
        <time>2012-02-23T15:30:52Z</time>
      </trkpt>
      <trkpt lat="43.35766" lon="-0.2064">
        <ele>298.15</ele>
        <time>2012-02-23T15:30:59Z</time>
      </trkpt>
      <trkpt lat="43.35757" lon="-0.20649">
        <ele>298.63</ele>
        <time>2012-02-23T15:31:06Z</time>
      </trkpt>
      <trkpt lat="43.35749" lon="-0.2066">
        <ele>298.63</ele>
        <time>2012-02-23T15:31:13Z</time>
      </trkpt>
      <trkpt lat="43.35742" lon="-0.2067">
        <ele>298.63</ele>
        <time>2012-02-23T15:31:20Z</time>
      </trkpt>
      <trkpt lat="43.35735" lon="-0.2068">
        <ele>298.15</ele>
        <time>2012-02-23T15:31:27Z</time>
      </trkpt>
      <trkpt lat="43.35729" lon="-0.20692">
        <ele>298.63</ele>
        <time>2012-02-23T15:31:34Z</time>
      </trkpt>
      <trkpt lat="43.35723" lon="-0.20702">
        <ele>299.11</ele>
        <time>2012-02-23T15:31:40Z</time>
      </trkpt>
      <trkpt lat="43.35719" lon="-0.20714">
        <ele>299.11</ele>
        <time>2012-02-23T15:31:46Z</time>
      </trkpt>
      <trkpt lat="43.35713" lon="-0.20726">
        <ele>299.11</ele>
        <time>2012-02-23T15:31:53Z</time>
      </trkpt>
      <trkpt lat="43.35709" lon="-0.20739">
        <ele>299.59</ele>
        <time>2012-02-23T15:32:00Z</time>
      </trkpt>
      <trkpt lat="43.35703" lon="-0.20751">
        <ele>300.07</ele>
        <time>2012-02-23T15:32:07Z</time>
      </trkpt>
      <trkpt lat="43.35699" lon="-0.20762">
        <ele>300.55</ele>
        <time>2012-02-23T15:32:14Z</time>
      </trkpt>
      <trkpt lat="43.35696" lon="-0.20775">
        <ele>300.55</ele>
        <time>2012-02-23T15:32:21Z</time>
      </trkpt>
      <trkpt lat="43.35694" lon="-0.20788">
        <ele>300.07</ele>
        <time>2012-02-23T15:32:29Z</time>
      </trkpt>
      <trkpt lat="43.3569" lon="-0.20802">
        <ele>300.55</ele>
        <time>2012-02-23T15:32:38Z</time>
      </trkpt>
      <trkpt lat="43.35686" lon="-0.20817">
        <ele>300.07</ele>
        <time>2012-02-23T15:32:47Z</time>
      </trkpt>
      <trkpt lat="43.35683" lon="-0.20832">
        <ele>299.59</ele>
        <time>2012-02-23T15:32:55Z</time>
      </trkpt>
      <trkpt lat="43.35681" lon="-0.20848">
        <ele>300.07</ele>
        <time>2012-02-23T15:33:05Z</time>
      </trkpt>
      <trkpt lat="43.35677" lon="-0.20865">
        <ele>299.59</ele>
        <time>2012-02-23T15:33:14Z</time>
      </trkpt>
      <trkpt lat="43.35671" lon="-0.20879">
        <ele>299.59</ele>
        <time>2012-02-23T15:33:23Z</time>
      </trkpt>
      <trkpt lat="43.35667" lon="-0.20898">
        <ele>298.63</ele>
        <time>2012-02-23T15:33:32Z</time>
      </trkpt>
      <trkpt lat="43.35665" lon="-0.20913">
        <ele>297.67</ele>
        <time>2012-02-23T15:33:40Z</time>
      </trkpt>
      <trkpt lat="43.35665" lon="-0.20932">
        <ele>297.67</ele>
        <time>2012-02-23T15:33:50Z</time>
      </trkpt>
      <trkpt lat="43.35664" lon="-0.2095">
        <ele>297.18</ele>
        <time>2012-02-23T15:34:01Z</time>
      </trkpt>
      <trkpt lat="43.35658" lon="-0.20963">
        <ele>297.67</ele>
        <time>2012-02-23T15:34:11Z</time>
      </trkpt>
      <trkpt lat="43.35654" lon="-0.20979">
        <ele>297.67</ele>
        <time>2012-02-23T15:34:21Z</time>
      </trkpt>
      <trkpt lat="43.3565" lon="-0.2099">
        <ele>297.67</ele>
        <time>2012-02-23T15:34:31Z</time>
      </trkpt>
      <trkpt lat="43.35646" lon="-0.21002">
        <ele>297.67</ele>
        <time>2012-02-23T15:34:39Z</time>
      </trkpt>
      <trkpt lat="43.35641" lon="-0.21016">
        <ele>298.63</ele>
        <time>2012-02-23T15:34:47Z</time>
      </trkpt>
      <trkpt lat="43.35634" lon="-0.21034">
        <ele>298.63</ele>
        <time>2012-02-23T15:34:59Z</time>
      </trkpt>
      <trkpt lat="43.35625" lon="-0.21049">
        <ele>299.11</ele>
        <time>2012-02-23T15:35:10Z</time>
      </trkpt>
      <trkpt lat="43.35614" lon="-0.2107">
        <ele>299.11</ele>
        <time>2012-02-23T15:35:27Z</time>
      </trkpt>
      <trkpt lat="43.35606" lon="-0.21086">
        <ele>299.11</ele>
        <time>2012-02-23T15:35:37Z</time>
      </trkpt>
      <trkpt lat="43.35601" lon="-0.21099">
        <ele>299.59</ele>
        <time>2012-02-23T15:35:46Z</time>
      </trkpt>
      <trkpt lat="43.35595" lon="-0.21113">
        <ele>299.59</ele>
        <time>2012-02-23T15:35:55Z</time>
      </trkpt>
      <trkpt lat="43.35588" lon="-0.21131">
        <ele>300.07</ele>
        <time>2012-02-23T15:36:04Z</time>
      </trkpt>
      <trkpt lat="43.35583" lon="-0.21146">
        <ele>300.07</ele>
        <time>2012-02-23T15:36:15Z</time>
      </trkpt>
      <trkpt lat="43.35576" lon="-0.21165">
        <ele>300.07</ele>
        <time>2012-02-23T15:36:25Z</time>
      </trkpt>
      <trkpt lat="43.35571" lon="-0.21181">
        <ele>300.07</ele>
        <time>2012-02-23T15:36:34Z</time>
      </trkpt>
      <trkpt lat="43.35565" lon="-0.21196">
        <ele>300.07</ele>
        <time>2012-02-23T15:36:44Z</time>
      </trkpt>
      <trkpt lat="43.35557" lon="-0.21216">
        <ele>300.07</ele>
        <time>2012-02-23T15:36:56Z</time>
      </trkpt>
      <trkpt lat="43.35551" lon="-0.21234">
        <ele>300.07</ele>
        <time>2012-02-23T15:37:08Z</time>
      </trkpt>
      <trkpt lat="43.35543" lon="-0.21252">
        <ele>300.55</ele>
        <time>2012-02-23T15:37:18Z</time>
      </trkpt>
      <trkpt lat="43.3553" lon="-0.2125">
        <ele>300.55</ele>
        <time>2012-02-23T15:37:26Z</time>
      </trkpt>
      <trkpt lat="43.35523" lon="-0.21236">
        <ele>300.55</ele>
        <time>2012-02-23T15:37:35Z</time>
      </trkpt>
      <trkpt lat="43.35515" lon="-0.21225">
        <ele>301.03</ele>
        <time>2012-02-23T15:37:43Z</time>
      </trkpt>
      <trkpt lat="43.35509" lon="-0.21212">
        <ele>301.03</ele>
        <time>2012-02-23T15:37:51Z</time>
      </trkpt>
      <trkpt lat="43.35503" lon="-0.21201">
        <ele>301.03</ele>
        <time>2012-02-23T15:37:58Z</time>
      </trkpt>
      <trkpt lat="43.35497" lon="-0.21192">
        <ele>301.03</ele>
        <time>2012-02-23T15:38:05Z</time>
      </trkpt>
      <trkpt lat="43.3549" lon="-0.21183">
        <ele>301.51</ele>
        <time>2012-02-23T15:38:12Z</time>
      </trkpt>
      <trkpt lat="43.35483" lon="-0.21173">
        <ele>301.51</ele>
        <time>2012-02-23T15:38:19Z</time>
      </trkpt>
      <trkpt lat="43.35474" lon="-0.21167">
        <ele>301.99</ele>
        <time>2012-02-23T15:38:26Z</time>
      </trkpt>
      <trkpt lat="43.35468" lon="-0.21157">
        <ele>301.99</ele>
        <time>2012-02-23T15:38:33Z</time>
      </trkpt>
      <trkpt lat="43.3546" lon="-0.21156">
        <ele>301.99</ele>
        <time>2012-02-23T15:38:41Z</time>
      </trkpt>
      <trkpt lat="43.35451" lon="-0.21167">
        <ele>302.47</ele>
        <time>2012-02-23T15:38:50Z</time>
      </trkpt>
      <trkpt lat="43.3544" lon="-0.21177">
        <ele>302.47</ele>
        <time>2012-02-23T15:39:00Z</time>
      </trkpt>
      <trkpt lat="43.35431" lon="-0.21188">
        <ele>302.47</ele>
        <time>2012-02-23T15:39:09Z</time>
      </trkpt>
      <trkpt lat="43.35422" lon="-0.21199">
        <ele>302.47</ele>
        <time>2012-02-23T15:39:17Z</time>
      </trkpt>
      <trkpt lat="43.35413" lon="-0.21207">
        <ele>301.99</ele>
        <time>2012-02-23T15:39:25Z</time>
      </trkpt>
      <trkpt lat="43.35405" lon="-0.21216">
        <ele>301.99</ele>
        <time>2012-02-23T15:39:33Z</time>
      </trkpt>
      <trkpt lat="43.35397" lon="-0.21223">
        <ele>301.51</ele>
        <time>2012-02-23T15:39:40Z</time>
      </trkpt>
      <trkpt lat="43.35387" lon="-0.21232">
        <ele>301.03</ele>
        <time>2012-02-23T15:39:52Z</time>
      </trkpt>
      <trkpt lat="43.35381" lon="-0.21247">
        <ele>300.55</ele>
        <time>2012-02-23T15:40:02Z</time>
      </trkpt>
      <trkpt lat="43.35385" lon="-0.21266">
        <ele>300.07</ele>
        <time>2012-02-23T15:40:13Z</time>
      </trkpt>
      <trkpt lat="43.35385" lon="-0.21285">
        <ele>300.07</ele>
        <time>2012-02-23T15:40:22Z</time>
      </trkpt>
      <trkpt lat="43.35389" lon="-0.21297">
        <ele>300.55</ele>
        <time>2012-02-23T15:40:30Z</time>
      </trkpt>
      <trkpt lat="43.35393" lon="-0.21313">
        <ele>300.55</ele>
        <time>2012-02-23T15:40:38Z</time>
      </trkpt>
      <trkpt lat="43.35397" lon="-0.21328">
        <ele>300.55</ele>
        <time>2012-02-23T15:40:48Z</time>
      </trkpt>
      <trkpt lat="43.354" lon="-0.21343">
        <ele>300.07</ele>
        <time>2012-02-23T15:40:56Z</time>
      </trkpt>
      <trkpt lat="43.35403" lon="-0.2136">
        <ele>300.07</ele>
        <time>2012-02-23T15:41:04Z</time>
      </trkpt>
      <trkpt lat="43.35406" lon="-0.21373">
        <ele>300.07</ele>
        <time>2012-02-23T15:41:11Z</time>
      </trkpt>
      <trkpt lat="43.35408" lon="-0.21389">
        <ele>299.59</ele>
        <time>2012-02-23T15:41:19Z</time>
      </trkpt>
      <trkpt lat="43.35407" lon="-0.21411">
        <ele>299.59</ele>
        <time>2012-02-23T15:41:31Z</time>
      </trkpt>
      <trkpt lat="43.35405" lon="-0.21432">
        <ele>300.07</ele>
        <time>2012-02-23T15:41:42Z</time>
      </trkpt>
      <trkpt lat="43.35406" lon="-0.21451">
        <ele>299.59</ele>
        <time>2012-02-23T15:41:52Z</time>
      </trkpt>
      <trkpt lat="43.35407" lon="-0.21467">
        <ele>299.59</ele>
        <time>2012-02-23T15:42:01Z</time>
      </trkpt>
      <trkpt lat="43.35408" lon="-0.21484">
        <ele>299.11</ele>
        <time>2012-02-23T15:42:11Z</time>
      </trkpt>
      <trkpt lat="43.35409" lon="-0.21497">
        <ele>299.11</ele>
        <time>2012-02-23T15:42:18Z</time>
      </trkpt>
      <trkpt lat="43.35409" lon="-0.21516">
        <ele>299.11</ele>
        <time>2012-02-23T15:42:30Z</time>
      </trkpt>
      <trkpt lat="43.35409" lon="-0.21534">
        <ele>298.63</ele>
        <time>2012-02-23T15:42:41Z</time>
      </trkpt>
      <trkpt lat="43.3541" lon="-0.21551">
        <ele>299.11</ele>
        <time>2012-02-23T15:42:50Z</time>
      </trkpt>
      <trkpt lat="43.3541" lon="-0.21565">
        <ele>299.11</ele>
        <time>2012-02-23T15:42:59Z</time>
      </trkpt>
      <trkpt lat="43.35412" lon="-0.2158">
        <ele>299.11</ele>
        <time>2012-02-23T15:43:07Z</time>
      </trkpt>
      <trkpt lat="43.35411" lon="-0.21595">
        <ele>298.15</ele>
        <time>2012-02-23T15:43:17Z</time>
      </trkpt>
      <trkpt lat="43.35412" lon="-0.21615">
        <ele>298.63</ele>
        <time>2012-02-23T15:43:30Z</time>
      </trkpt>
      <trkpt lat="43.35414" lon="-0.21632">
        <ele>298.63</ele>
        <time>2012-02-23T15:43:41Z</time>
      </trkpt>
      <trkpt lat="43.35416" lon="-0.21651">
        <ele>298.63</ele>
        <time>2012-02-23T15:43:53Z</time>
      </trkpt>
      <trkpt lat="43.35418" lon="-0.21668">
        <ele>298.63</ele>
        <time>2012-02-23T15:44:06Z</time>
      </trkpt>
      <trkpt lat="43.35418" lon="-0.21679">
        <ele>298.15</ele>
        <time>2012-02-23T15:46:01Z</time>
      </trkpt>
      <trkpt lat="43.3542" lon="-0.2169">
        <ele>297.18</ele>
        <time>2012-02-23T15:46:18Z</time>
      </trkpt>
      <trkpt lat="43.35408" lon="-0.21693">
        <ele>297.18</ele>
        <time>2012-02-23T15:46:27Z</time>
      </trkpt>
      <trkpt lat="43.35397" lon="-0.21695">
        <ele>296.22</ele>
        <time>2012-02-23T15:46:34Z</time>
      </trkpt>
      <trkpt lat="43.35386" lon="-0.217">
        <ele>296.7</ele>
        <time>2012-02-23T15:46:42Z</time>
      </trkpt>
      <trkpt lat="43.35376" lon="-0.21708">
        <ele>296.7</ele>
        <time>2012-02-23T15:46:50Z</time>
      </trkpt>
      <trkpt lat="43.35368" lon="-0.21715">
        <ele>296.22</ele>
        <time>2012-02-23T15:46:57Z</time>
      </trkpt>
      <trkpt lat="43.3536" lon="-0.21723">
        <ele>296.22</ele>
        <time>2012-02-23T15:47:04Z</time>
      </trkpt>
      <trkpt lat="43.35353" lon="-0.21733">
        <ele>295.74</ele>
        <time>2012-02-23T15:47:11Z</time>
      </trkpt>
      <trkpt lat="43.35347" lon="-0.21742">
        <ele>295.74</ele>
        <time>2012-02-23T15:47:18Z</time>
      </trkpt>
      <trkpt lat="43.35341" lon="-0.21753">
        <ele>295.74</ele>
        <time>2012-02-23T15:47:25Z</time>
      </trkpt>
      <trkpt lat="43.35334" lon="-0.21761">
        <ele>295.74</ele>
        <time>2012-02-23T15:47:31Z</time>
      </trkpt>
      <trkpt lat="43.35327" lon="-0.21771">
        <ele>295.74</ele>
        <time>2012-02-23T15:47:38Z</time>
      </trkpt>
      <trkpt lat="43.35319" lon="-0.21782">
        <ele>294.78</ele>
        <time>2012-02-23T15:47:45Z</time>
      </trkpt>
      <trkpt lat="43.35312" lon="-0.21791">
        <ele>294.78</ele>
        <time>2012-02-23T15:47:52Z</time>
      </trkpt>
      <trkpt lat="43.35304" lon="-0.21802">
        <ele>294.78</ele>
        <time>2012-02-23T15:47:59Z</time>
      </trkpt>
      <trkpt lat="43.35297" lon="-0.2181">
        <ele>294.3</ele>
        <time>2012-02-23T15:48:06Z</time>
      </trkpt>
      <trkpt lat="43.35287" lon="-0.21817">
        <ele>294.3</ele>
        <time>2012-02-23T15:48:14Z</time>
      </trkpt>
      <trkpt lat="43.35278" lon="-0.21818">
        <ele>293.82</ele>
        <time>2012-02-23T15:48:21Z</time>
      </trkpt>
      <trkpt lat="43.3527" lon="-0.21813">
        <ele>293.82</ele>
        <time>2012-02-23T15:48:28Z</time>
      </trkpt>
      <trkpt lat="43.35261" lon="-0.21808">
        <ele>294.3</ele>
        <time>2012-02-23T15:48:35Z</time>
      </trkpt>
      <trkpt lat="43.35252" lon="-0.21798">
        <ele>294.78</ele>
        <time>2012-02-23T15:48:43Z</time>
      </trkpt>
      <trkpt lat="43.35244" lon="-0.21792">
        <ele>294.78</ele>
        <time>2012-02-23T15:48:50Z</time>
      </trkpt>
      <trkpt lat="43.35236" lon="-0.21785">
        <ele>294.78</ele>
        <time>2012-02-23T15:48:59Z</time>
      </trkpt>
      <trkpt lat="43.35227" lon="-0.21777">
        <ele>295.74</ele>
        <time>2012-02-23T15:50:14Z</time>
      </trkpt>
      <trkpt lat="43.35218" lon="-0.21768">
        <ele>294.78</ele>
        <time>2012-02-23T15:50:22Z</time>
      </trkpt>
      <trkpt lat="43.35211" lon="-0.2176">
        <ele>296.22</ele>
        <time>2012-02-23T15:50:35Z</time>
      </trkpt>
      <trkpt lat="43.35201" lon="-0.21752">
        <ele>295.26</ele>
        <time>2012-02-23T15:50:44Z</time>
      </trkpt>
      <trkpt lat="43.35194" lon="-0.21742">
        <ele>295.74</ele>
        <time>2012-02-23T15:50:51Z</time>
      </trkpt>
      <trkpt lat="43.35186" lon="-0.21732">
        <ele>295.74</ele>
        <time>2012-02-23T15:50:58Z</time>
      </trkpt>
      <trkpt lat="43.35179" lon="-0.21722">
        <ele>295.74</ele>
        <time>2012-02-23T15:51:05Z</time>
      </trkpt>
      <trkpt lat="43.35172" lon="-0.21713">
        <ele>295.74</ele>
        <time>2012-02-23T15:51:13Z</time>
      </trkpt>
      <trkpt lat="43.35164" lon="-0.21704">
        <ele>295.74</ele>
        <time>2012-02-23T15:51:20Z</time>
      </trkpt>
      <trkpt lat="43.35157" lon="-0.21693">
        <ele>296.22</ele>
        <time>2012-02-23T15:51:27Z</time>
      </trkpt>
      <trkpt lat="43.35149" lon="-0.21684">
        <ele>296.22</ele>
        <time>2012-02-23T15:51:34Z</time>
      </trkpt>
      <trkpt lat="43.35142" lon="-0.21676">
        <ele>296.22</ele>
        <time>2012-02-23T15:51:41Z</time>
      </trkpt>
      <trkpt lat="43.35136" lon="-0.21667">
        <ele>296.7</ele>
        <time>2012-02-23T15:51:49Z</time>
      </trkpt>
      <trkpt lat="43.35127" lon="-0.21655">
        <ele>297.18</ele>
        <time>2012-02-23T15:51:58Z</time>
      </trkpt>
      <trkpt lat="43.35118" lon="-0.21644">
        <ele>296.7</ele>
        <time>2012-02-23T15:52:06Z</time>
      </trkpt>
      <trkpt lat="43.35109" lon="-0.21639">
        <ele>296.22</ele>
        <time>2012-02-23T15:52:13Z</time>
      </trkpt>
      <trkpt lat="43.35098" lon="-0.2164">
        <ele>295.74</ele>
        <time>2012-02-23T15:52:27Z</time>
      </trkpt>
      <trkpt lat="43.3509" lon="-0.21648">
        <ele>295.74</ele>
        <time>2012-02-23T15:52:34Z</time>
      </trkpt>
      <trkpt lat="43.35079" lon="-0.21657">
        <ele>295.26</ele>
        <time>2012-02-23T15:52:42Z</time>
      </trkpt>
      <trkpt lat="43.3507" lon="-0.21665">
        <ele>295.26</ele>
        <time>2012-02-23T15:52:49Z</time>
      </trkpt>
      <trkpt lat="43.35061" lon="-0.21674">
        <ele>295.26</ele>
        <time>2012-02-23T15:52:56Z</time>
      </trkpt>
      <trkpt lat="43.35053" lon="-0.21682">
        <ele>294.78</ele>
        <time>2012-02-23T15:53:03Z</time>
      </trkpt>
      <trkpt lat="43.35044" lon="-0.21691">
        <ele>295.26</ele>
        <time>2012-02-23T15:53:11Z</time>
      </trkpt>
      <trkpt lat="43.35035" lon="-0.217">
        <ele>294.78</ele>
        <time>2012-02-23T15:53:19Z</time>
      </trkpt>
      <trkpt lat="43.35027" lon="-0.21708">
        <ele>295.26</ele>
        <time>2012-02-23T15:53:27Z</time>
      </trkpt>
      <trkpt lat="43.35017" lon="-0.21717">
        <ele>295.74</ele>
        <time>2012-02-23T15:53:35Z</time>
      </trkpt>
      <trkpt lat="43.35007" lon="-0.21727">
        <ele>296.22</ele>
        <time>2012-02-23T15:53:43Z</time>
      </trkpt>
      <trkpt lat="43.34998" lon="-0.21739">
        <ele>296.7</ele>
        <time>2012-02-23T15:53:52Z</time>
      </trkpt>
      <trkpt lat="43.34993" lon="-0.2175">
        <ele>296.7</ele>
        <time>2012-02-23T15:54:00Z</time>
      </trkpt>
      <trkpt lat="43.34989" lon="-0.21762">
        <ele>296.22</ele>
        <time>2012-02-23T15:54:07Z</time>
      </trkpt>
      <trkpt lat="43.34983" lon="-0.21774">
        <ele>296.22</ele>
        <time>2012-02-23T15:54:15Z</time>
      </trkpt>
      <trkpt lat="43.34977" lon="-0.21786">
        <ele>296.7</ele>
        <time>2012-02-23T15:54:23Z</time>
      </trkpt>
      <trkpt lat="43.34972" lon="-0.21799">
        <ele>296.7</ele>
        <time>2012-02-23T15:54:31Z</time>
      </trkpt>
      <trkpt lat="43.34967" lon="-0.21812">
        <ele>297.67</ele>
        <time>2012-02-23T15:54:39Z</time>
      </trkpt>
      <trkpt lat="43.34961" lon="-0.21824">
        <ele>297.67</ele>
        <time>2012-02-23T15:54:47Z</time>
      </trkpt>
      <trkpt lat="43.34955" lon="-0.21837">
        <ele>299.11</ele>
        <time>2012-02-23T15:54:55Z</time>
      </trkpt>
      <trkpt lat="43.3495" lon="-0.2185">
        <ele>299.59</ele>
        <time>2012-02-23T15:55:03Z</time>
      </trkpt>
      <trkpt lat="43.34946" lon="-0.21864">
        <ele>300.55</ele>
        <time>2012-02-23T15:55:12Z</time>
      </trkpt>
      <trkpt lat="43.3494" lon="-0.21877">
        <ele>301.03</ele>
        <time>2012-02-23T15:55:21Z</time>
      </trkpt>
      <trkpt lat="43.34932" lon="-0.21886">
        <ele>301.51</ele>
        <time>2012-02-23T15:55:29Z</time>
      </trkpt>
      <trkpt lat="43.34924" lon="-0.21894">
        <ele>301.51</ele>
        <time>2012-02-23T15:55:36Z</time>
      </trkpt>
      <trkpt lat="43.34916" lon="-0.21901">
        <ele>301.99</ele>
        <time>2012-02-23T15:55:44Z</time>
      </trkpt>
      <trkpt lat="43.34907" lon="-0.21907">
        <ele>301.99</ele>
        <time>2012-02-23T15:55:51Z</time>
      </trkpt>
      <trkpt lat="43.34899" lon="-0.21914">
        <ele>301.99</ele>
        <time>2012-02-23T15:55:58Z</time>
      </trkpt>
      <trkpt lat="43.34891" lon="-0.21922">
        <ele>302.47</ele>
        <time>2012-02-23T15:56:06Z</time>
      </trkpt>
      <trkpt lat="43.34883" lon="-0.21929">
        <ele>302.95</ele>
        <time>2012-02-23T15:56:14Z</time>
      </trkpt>
      <trkpt lat="43.34874" lon="-0.21937">
        <ele>303.43</ele>
        <time>2012-02-23T15:56:22Z</time>
      </trkpt>
      <trkpt lat="43.34866" lon="-0.21944">
        <ele>303.43</ele>
        <time>2012-02-23T15:56:29Z</time>
      </trkpt>
      <trkpt lat="43.34858" lon="-0.21951">
        <ele>303.43</ele>
        <time>2012-02-23T15:56:36Z</time>
      </trkpt>
      <trkpt lat="43.34851" lon="-0.2196">
        <ele>303.91</ele>
        <time>2012-02-23T15:56:44Z</time>
      </trkpt>
      <trkpt lat="43.34847" lon="-0.21971">
        <ele>303.91</ele>
        <time>2012-02-23T15:56:51Z</time>
      </trkpt>
      <trkpt lat="43.34842" lon="-0.21983">
        <ele>304.39</ele>
        <time>2012-02-23T15:56:58Z</time>
      </trkpt>
      <trkpt lat="43.34837" lon="-0.21994">
        <ele>304.39</ele>
        <time>2012-02-23T15:57:05Z</time>
      </trkpt>
      <trkpt lat="43.34833" lon="-0.22007">
        <ele>304.88</ele>
        <time>2012-02-23T15:57:13Z</time>
      </trkpt>
      <trkpt lat="43.34829" lon="-0.22018">
        <ele>304.88</ele>
        <time>2012-02-23T15:57:20Z</time>
      </trkpt>
      <trkpt lat="43.34824" lon="-0.2203">
        <ele>304.88</ele>
        <time>2012-02-23T15:57:28Z</time>
      </trkpt>
      <trkpt lat="43.3482" lon="-0.22041">
        <ele>304.88</ele>
        <time>2012-02-23T15:57:35Z</time>
      </trkpt>
      <trkpt lat="43.34816" lon="-0.22053">
        <ele>304.88</ele>
        <time>2012-02-23T15:57:42Z</time>
      </trkpt>
      <trkpt lat="43.34811" lon="-0.22066">
        <ele>304.88</ele>
        <time>2012-02-23T15:57:49Z</time>
      </trkpt>
      <trkpt lat="43.34807" lon="-0.22077">
        <ele>304.88</ele>
        <time>2012-02-23T15:57:56Z</time>
      </trkpt>
      <trkpt lat="43.34803" lon="-0.22089">
        <ele>304.88</ele>
        <time>2012-02-23T15:58:03Z</time>
      </trkpt>
      <trkpt lat="43.348" lon="-0.22101">
        <ele>304.88</ele>
        <time>2012-02-23T15:58:11Z</time>
      </trkpt>
      <trkpt lat="43.34796" lon="-0.22115">
        <ele>304.39</ele>
        <time>2012-02-23T15:58:19Z</time>
      </trkpt>
      <trkpt lat="43.34792" lon="-0.22128">
        <ele>304.39</ele>
        <time>2012-02-23T15:58:27Z</time>
      </trkpt>
      <trkpt lat="43.34788" lon="-0.22139">
        <ele>304.88</ele>
        <time>2012-02-23T15:58:34Z</time>
      </trkpt>
      <trkpt lat="43.34784" lon="-0.22151">
        <ele>304.39</ele>
        <time>2012-02-23T15:58:41Z</time>
      </trkpt>
      <trkpt lat="43.34781" lon="-0.22165">
        <ele>304.39</ele>
        <time>2012-02-23T15:58:50Z</time>
      </trkpt>
      <trkpt lat="43.34776" lon="-0.22179">
        <ele>303.91</ele>
        <time>2012-02-23T15:59:00Z</time>
      </trkpt>
      <trkpt lat="43.34769" lon="-0.22195">
        <ele>303.43</ele>
        <time>2012-02-23T15:59:10Z</time>
      </trkpt>
      <trkpt lat="43.34764" lon="-0.22209">
        <ele>304.39</ele>
        <time>2012-02-23T15:59:19Z</time>
      </trkpt>
      <trkpt lat="43.34758" lon="-0.22223">
        <ele>303.43</ele>
        <time>2012-02-23T15:59:27Z</time>
      </trkpt>
      <trkpt lat="43.34753" lon="-0.22235">
        <ele>303.43</ele>
        <time>2012-02-23T15:59:34Z</time>
      </trkpt>
      <trkpt lat="43.34747" lon="-0.22247">
        <ele>302.95</ele>
        <time>2012-02-23T15:59:41Z</time>
      </trkpt>
      <trkpt lat="43.34742" lon="-0.22259">
        <ele>302.95</ele>
        <time>2012-02-23T15:59:48Z</time>
      </trkpt>
      <trkpt lat="43.34736" lon="-0.22269">
        <ele>302.95</ele>
        <time>2012-02-23T15:59:55Z</time>
      </trkpt>
      <trkpt lat="43.3473" lon="-0.22281">
        <ele>302.95</ele>
        <time>2012-02-23T16:00:03Z</time>
      </trkpt>
      <trkpt lat="43.34721" lon="-0.22296">
        <ele>302.47</ele>
        <time>2012-02-23T16:00:12Z</time>
      </trkpt>
      <trkpt lat="43.34713" lon="-0.22308">
        <ele>302.95</ele>
        <time>2012-02-23T16:00:21Z</time>
      </trkpt>
      <trkpt lat="43.34705" lon="-0.22316">
        <ele>303.43</ele>
        <time>2012-02-23T16:00:31Z</time>
      </trkpt>
      <trkpt lat="43.34693" lon="-0.22312">
        <ele>303.43</ele>
        <time>2012-02-23T16:00:43Z</time>
      </trkpt>
      <trkpt lat="43.34683" lon="-0.22307">
        <ele>303.91</ele>
        <time>2012-02-23T16:00:51Z</time>
      </trkpt>
      <trkpt lat="43.34671" lon="-0.22302">
        <ele>304.88</ele>
        <time>2012-02-23T16:01:01Z</time>
      </trkpt>
      <trkpt lat="43.3466" lon="-0.22299">
        <ele>304.88</ele>
        <time>2012-02-23T16:01:11Z</time>
      </trkpt>
      <trkpt lat="43.34648" lon="-0.22294">
        <ele>304.88</ele>
        <time>2012-02-23T16:01:21Z</time>
      </trkpt>
      <trkpt lat="43.34636" lon="-0.22289">
        <ele>304.88</ele>
        <time>2012-02-23T16:01:31Z</time>
      </trkpt>
      <trkpt lat="43.34624" lon="-0.22281">
        <ele>305.84</ele>
        <time>2012-02-23T16:01:42Z</time>
      </trkpt>
      <trkpt lat="43.34612" lon="-0.22274">
        <ele>305.84</ele>
        <time>2012-02-23T16:01:52Z</time>
      </trkpt>
      <trkpt lat="43.34599" lon="-0.22264">
        <ele>305.84</ele>
        <time>2012-02-23T16:02:02Z</time>
      </trkpt>
      <trkpt lat="43.34589" lon="-0.22258">
        <ele>306.32</ele>
        <time>2012-02-23T16:02:10Z</time>
      </trkpt>
      <trkpt lat="43.34581" lon="-0.22252">
        <ele>306.32</ele>
        <time>2012-02-23T16:02:18Z</time>
      </trkpt>
      <trkpt lat="43.34572" lon="-0.22246">
        <ele>306.32</ele>
        <time>2012-02-23T16:02:27Z</time>
      </trkpt>
      <trkpt lat="43.34561" lon="-0.22239">
        <ele>306.32</ele>
        <time>2012-02-23T16:02:36Z</time>
      </trkpt>
      <trkpt lat="43.34554" lon="-0.22232">
        <ele>306.32</ele>
        <time>2012-02-23T16:02:45Z</time>
      </trkpt>
      <trkpt lat="43.34545" lon="-0.22226">
        <ele>306.32</ele>
        <time>2012-02-23T16:02:54Z</time>
      </trkpt>
      <trkpt lat="43.34536" lon="-0.22223">
        <ele>306.8</ele>
        <time>2012-02-23T16:03:01Z</time>
      </trkpt>
      <trkpt lat="43.34526" lon="-0.22221">
        <ele>306.8</ele>
        <time>2012-02-23T16:03:10Z</time>
      </trkpt>
      <trkpt lat="43.34517" lon="-0.22211">
        <ele>306.32</ele>
        <time>2012-02-23T16:03:19Z</time>
      </trkpt>
      <trkpt lat="43.34509" lon="-0.22203">
        <ele>306.32</ele>
        <time>2012-02-23T16:03:28Z</time>
      </trkpt>
      <trkpt lat="43.34502" lon="-0.22194">
        <ele>307.28</ele>
        <time>2012-02-23T16:03:36Z</time>
      </trkpt>
      <trkpt lat="43.34494" lon="-0.22185">
        <ele>307.76</ele>
        <time>2012-02-23T16:03:44Z</time>
      </trkpt>
      <trkpt lat="43.34486" lon="-0.22175">
        <ele>307.76</ele>
        <time>2012-02-23T16:03:52Z</time>
      </trkpt>
      <trkpt lat="43.34477" lon="-0.22166">
        <ele>308.24</ele>
        <time>2012-02-23T16:04:00Z</time>
      </trkpt>
      <trkpt lat="43.3447" lon="-0.22156">
        <ele>307.76</ele>
        <time>2012-02-23T16:04:08Z</time>
      </trkpt>
      <trkpt lat="43.34462" lon="-0.22146">
        <ele>308.24</ele>
        <time>2012-02-23T16:04:17Z</time>
      </trkpt>
      <trkpt lat="43.34455" lon="-0.22137">
        <ele>308.24</ele>
        <time>2012-02-23T16:04:26Z</time>
      </trkpt>
      <trkpt lat="43.34446" lon="-0.22128">
        <ele>308.72</ele>
        <time>2012-02-23T16:04:34Z</time>
      </trkpt>
      <trkpt lat="43.34439" lon="-0.2212">
        <ele>308.72</ele>
        <time>2012-02-23T16:04:41Z</time>
      </trkpt>
      <trkpt lat="43.34431" lon="-0.22111">
        <ele>308.24</ele>
        <time>2012-02-23T16:04:49Z</time>
      </trkpt>
      <trkpt lat="43.34424" lon="-0.22101">
        <ele>309.2</ele>
        <time>2012-02-23T16:04:57Z</time>
      </trkpt>
      <trkpt lat="43.34417" lon="-0.22091">
        <ele>308.72</ele>
        <time>2012-02-23T16:05:04Z</time>
      </trkpt>
      <trkpt lat="43.34409" lon="-0.22082">
        <ele>308.72</ele>
        <time>2012-02-23T16:05:12Z</time>
      </trkpt>
      <trkpt lat="43.34401" lon="-0.22072">
        <ele>308.72</ele>
        <time>2012-02-23T16:05:20Z</time>
      </trkpt>
      <trkpt lat="43.34394" lon="-0.22063">
        <ele>308.72</ele>
        <time>2012-02-23T16:05:28Z</time>
      </trkpt>
      <trkpt lat="43.34385" lon="-0.22053">
        <ele>309.2</ele>
        <time>2012-02-23T16:05:38Z</time>
      </trkpt>
      <trkpt lat="43.34378" lon="-0.22043">
        <ele>309.2</ele>
        <time>2012-02-23T16:05:46Z</time>
      </trkpt>
      <trkpt lat="43.3437" lon="-0.22034">
        <ele>308.72</ele>
        <time>2012-02-23T16:05:54Z</time>
      </trkpt>
      <trkpt lat="43.34362" lon="-0.22025">
        <ele>309.68</ele>
        <time>2012-02-23T16:06:02Z</time>
      </trkpt>
      <trkpt lat="43.34354" lon="-0.22016">
        <ele>309.2</ele>
        <time>2012-02-23T16:06:10Z</time>
      </trkpt>
      <trkpt lat="43.34346" lon="-0.22007">
        <ele>309.2</ele>
        <time>2012-02-23T16:06:18Z</time>
      </trkpt>
      <trkpt lat="43.34339" lon="-0.21999">
        <ele>309.2</ele>
        <time>2012-02-23T16:06:26Z</time>
      </trkpt>
      <trkpt lat="43.34332" lon="-0.2199">
        <ele>308.72</ele>
        <time>2012-02-23T16:06:34Z</time>
      </trkpt>
      <trkpt lat="43.34326" lon="-0.21978">
        <ele>309.68</ele>
        <time>2012-02-23T16:06:43Z</time>
      </trkpt>
      <trkpt lat="43.3432" lon="-0.21966">
        <ele>309.68</ele>
        <time>2012-02-23T16:06:52Z</time>
      </trkpt>
      <trkpt lat="43.34314" lon="-0.21955">
        <ele>309.68</ele>
        <time>2012-02-23T16:07:01Z</time>
      </trkpt>
      <trkpt lat="43.34305" lon="-0.21947">
        <ele>309.68</ele>
        <time>2012-02-23T16:07:10Z</time>
      </trkpt>
      <trkpt lat="43.34295" lon="-0.21951">
        <ele>309.2</ele>
        <time>2012-02-23T16:07:19Z</time>
      </trkpt>
      <trkpt lat="43.34283" lon="-0.21954">
        <ele>309.2</ele>
        <time>2012-02-23T16:07:28Z</time>
      </trkpt>
      <trkpt lat="43.34273" lon="-0.21959">
        <ele>309.2</ele>
        <time>2012-02-23T16:07:37Z</time>
      </trkpt>
      <trkpt lat="43.3426" lon="-0.21961">
        <ele>309.2</ele>
        <time>2012-02-23T16:07:45Z</time>
      </trkpt>
      <trkpt lat="43.3425" lon="-0.21964">
        <ele>309.68</ele>
        <time>2012-02-23T16:07:53Z</time>
      </trkpt>
      <trkpt lat="43.3424" lon="-0.21968">
        <ele>309.2</ele>
        <time>2012-02-23T16:08:01Z</time>
      </trkpt>
      <trkpt lat="43.3423" lon="-0.21975">
        <ele>309.68</ele>
        <time>2012-02-23T16:08:09Z</time>
      </trkpt>
      <trkpt lat="43.34219" lon="-0.21978">
        <ele>310.16</ele>
        <time>2012-02-23T16:08:16Z</time>
      </trkpt>
      <trkpt lat="43.34209" lon="-0.21981">
        <ele>310.16</ele>
        <time>2012-02-23T16:08:23Z</time>
      </trkpt>
      <trkpt lat="43.342" lon="-0.21981">
        <ele>310.16</ele>
        <time>2012-02-23T16:08:31Z</time>
      </trkpt>
      <trkpt lat="43.34198" lon="-0.21983">
        <ele>310.64</ele>
        <time>2012-02-23T16:09:36Z</time>
      </trkpt>
    </trkseg>
  </trk>
</gpx>